Another Hard Day at the Office Weather Stats

 
 
 

High monthly outside Temperature, 22.8 , C
Low monthly outside Temperature, -1.0 , C
High yearly outside Temperature, 30.9 , C
Low yearly outside Temperature, -2.2 , C

Low monthly barometer, 1001.1 , mb
High monthly barometer, 1028.0 , mb
Low yearly barometer, 975.0 , mb
High yearly barometer 1041.1 , mb

High wind speed, 25.0 , mph
Time of High wind speed, 21:37 , mph
High monthly wind speed, 47.0 , mph
High yearly wind speed, 55.0 , mph

 

 




3126
                    Temp     Hi    Low   Out    Dew  Wind  Wind   Wind    Hi    Hi   Wind   Heat    THW                Rain    Heat    Cool    In     In    In     In     In   In Air  Wind  Wind    ISS   Arc.
  Date    Time     Out   Temp   Temp   Hum    Pt. Speed   Dir    Run Speed   Dir  Chill  Index  Index   Bar    Rain  Rate    D-D     D-D    Temp   Hum    Dew   Heat    EMC Density  Samp   Tx   Recept  Int.
---------------------------------------------------------------------------------------------------------------------------------------------------------------------------------------------------------------
19/09/18   0:05   18.4   18.5   18.4    81   15.1  16.0    SW   1.33  19.0    SW   15.6   18.9   16.1  1012.8  0.00  0.00   0.000   0.000   25.3    60   17.0   25.8  10.85  .0724    116    1    100.0    5 
19/09/18   0:10   18.5   18.5   18.4    81   15.2  15.0    SW   1.25  19.0    SW   15.9   18.9   16.3  1012.8  0.00  0.00   0.000   0.001   25.3    60   17.0   25.8  10.85  .0724    116    1    100.0    5 
19/09/18   0:15   18.4   18.5   18.4    81   15.1  16.0    SW   1.33  19.0    SW   15.6   18.9   16.1  1012.7  0.00  0.00   0.000   0.000   25.3    60   17.0   25.8  10.85  .0724    116    1    100.0    5 
19/09/18   0:20   18.4   18.4   18.4    81   15.1  15.0    SW   1.25  20.0   SSW   15.8   18.9   16.2  1012.7  0.00  0.00   0.000   0.000   25.3    61   17.3   25.9  11.00  .0724    117    1    100.0    5 
19/09/18   0:25   18.4   18.4   18.4    81   15.1  15.0    SW   1.25  20.0    SW   15.7   18.8   16.1  1012.6  0.00  0.00   0.000   0.000   25.3    61   17.3   25.9  11.00  .0724    116    1    100.0    5 
19/09/18   0:30   18.4   18.4   18.4    81   15.1  15.0   SSW   1.25  20.0    SW   15.7   18.8   16.1  1012.7  0.00  0.00   0.000   0.000   25.4    61   17.3   25.9  11.00  .0724    116    1    100.0    5 
19/09/18   0:35   18.4   18.4   18.4    81   15.1  16.0    SW   1.33  20.0   SSW   15.6   18.8   15.9  1012.7  0.00  0.00   0.000   0.000   25.4    61   17.3   25.9  11.00  .0724    117    1    100.0    5 
19/09/18   0:40   18.4   18.4   18.4    81   15.1  15.0    SW   1.25  19.0    SW   15.8   18.9   16.2  1012.7  0.00  0.00   0.000   0.000   25.4    61   17.3   25.9  11.00  .0724    116    1    100.0    5 
19/09/18   0:45   18.4   18.4   18.4    81   15.1  14.0    SW   1.17  17.0    SW   15.9   18.8   16.3  1012.7  0.00  0.00   0.000   0.000   25.4    61   17.3   25.9  11.00  .0724    116    1    100.0    5 
19/09/18   0:50   18.4   18.4   18.3    81   15.1  15.0    SW   1.25  20.0   SSW   15.7   18.8   16.1  1012.6  0.00  0.00   0.000   0.000   25.4    61   17.3   25.9  11.00  .0724    118    1    100.0    5 
19/09/18   0:55   18.3   18.4   18.3    81   15.0  15.0    SW   1.25  19.0    SW   15.7   18.7   16.1  1012.7  0.00  0.00   0.000   0.000   25.4    61   17.3   25.9  11.00  .0724    117    1    100.0    5 
19/09/18   1:00   18.3   18.4   18.3    81   15.0  15.0    SW   1.25  20.0   SSW   15.7   18.7   16.1  1012.7  0.00  0.00   0.000   0.000   25.4    61   17.3   25.9  11.00  .0724    117    1    100.0    5 
19/09/18   1:05   18.4   18.4   18.3    81   15.1  15.0    SW   1.25  19.0    SW   15.7   18.8   16.1  1012.7  0.00  0.00   0.000   0.000   25.4    61   17.3   25.9  11.00  .0724    116    1    100.0    5 
19/09/18   1:10   18.4   18.4   18.3    81   15.1  16.0    SW   1.33  20.0    SW   15.6   18.8   15.9  1012.8  0.00  0.00   0.000   0.000   25.4    61   17.3   25.9  11.00  .0724    117    1    100.0    5 
19/09/18   1:15   18.4   18.4   18.4    81   15.1  16.0    SW   1.33  19.0    SW   15.6   18.9   16.1  1012.8  0.00  0.00   0.000   0.000   25.3    61   17.3   25.9  11.00  .0724    117    1    100.0    5 
19/09/18   1:20   18.4   18.4   18.4    81   15.1  15.0    SW   1.25  20.0    SW   15.8   18.9   16.2  1012.8  0.00  0.00   0.000   0.000   25.3    61   17.3   25.9  11.00  .0724    116    1    100.0    5 
19/09/18   1:25   18.4   18.4   18.4    81   15.1  15.0    SW   1.25  21.0    SW   15.8   18.9   16.2  1012.8  0.00  0.00   0.000   0.000   25.3    61   17.3   25.9  11.00  .0724    117    1    100.0    5 
19/09/18   1:30   18.4   18.4   18.4    81   15.1  16.0    SW   1.33  21.0    SW   15.6   18.9   16.1  1012.9  0.00  0.00   0.000   0.000   25.3    61   17.3   25.9  11.00  .0724    116    1    100.0    5 
19/09/18   1:35   18.4   18.4   18.4    81   15.1  16.0    SW   1.33  19.0    SW   15.6   18.8   15.9  1012.8  0.00  0.00   0.000   0.000   25.3    61   17.3   25.9  11.00  .0724    117    1    100.0    5 
19/09/18   1:40   18.4   18.4   18.4    81   15.1  17.0    SW   1.42  21.0    SW   15.4   18.8   15.8  1012.8  0.00  0.00   0.000   0.000   25.3    61   17.3   25.9  11.00  .0724    117    1    100.0    5 
19/09/18   1:45   18.4   18.4   18.4    81   15.1  17.0    SW   1.42  21.0    SW   15.4   18.8   15.8  1012.7  0.00  0.00   0.000   0.000   25.3    61   17.3   25.9  11.00  .0724    117    1    100.0    5 
19/09/18   1:50   18.4   18.4   18.4    81   15.1  19.0    SW   1.58  23.0    SW   15.1   18.8   15.5  1012.7  0.00  0.00   0.000   0.000   25.3    61   17.3   25.9  11.00  .0724    116    1    100.0    5 
19/09/18   1:55   18.4   18.4   18.4    81   15.1  18.0    SW   1.50  23.0    SW   15.2   18.8   15.6  1012.8  0.00  0.00   0.000   0.000   25.3    61   17.3   25.9  11.00  .0724    118    1    100.0    5 
19/09/18   2:00   18.4   18.4   18.3    81   15.1  17.0    SW   1.42  22.0    SW   15.4   18.8   15.8  1012.8  0.00  0.00   0.000   0.000   25.3    61   17.3   25.9  11.00  .0724    117    1    100.0    5 
19/09/18   2:05   18.4   18.4   18.3    81   15.1  17.0    SW   1.42  21.0    SW   15.4   18.8   15.8  1012.7  0.00  0.00   0.000   0.000   25.4    61   17.3   25.9  11.00  .0724    116    1    100.0    5 
19/09/18   2:10   18.4   18.4   18.3    81   15.1  17.0    SW   1.42  21.0    SW   15.4   18.8   15.8  1012.8  0.00  0.00   0.000   0.000   25.4    61   17.3   25.9  11.00  .0724    115    1    100.0    5 
19/09/18   2:15   18.4   18.4   18.3    81   15.1  18.0    SW   1.50  21.0    SW   15.2   18.8   15.6  1012.6  0.00  0.00   0.000   0.000   25.4    61   17.3   25.9  11.00  .0724    117    1    100.0    5 
19/09/18   2:20   18.4   18.4   18.4    81   15.1  18.0    SW   1.50  21.0    SW   15.2   18.8   15.6  1012.5  0.00  0.00   0.000   0.000   25.4    61   17.3   25.9  11.00  .0724    115    1    100.0    5 
19/09/18   2:25   18.4   18.4   18.4    81   15.1  17.0    SW   1.42  20.0    SW   15.4   18.9   15.9  1012.4  0.00  0.00   0.000   0.000   25.4    61   17.3   25.9  11.00  .0724    117    1    100.0    5 
19/09/18   2:30   18.4   18.4   18.4    81   15.1  16.0    SW   1.33  20.0    SW   15.6   18.8   15.9  1012.5  0.00  0.00   0.000   0.000   25.4    61   17.3   25.9  11.00  .0724    117    1    100.0    5 
19/09/18   2:35   18.4   18.4   18.4    81   15.1  17.0    SW   1.42  20.0    SW   15.4   18.8   15.8  1012.6  0.00  0.00   0.000   0.000   25.4    61   17.3   25.9  11.00  .0724    117    1    100.0    5 
19/09/18   2:40   18.3   18.4   18.3    81   15.0  16.0    SW   1.33  21.0    SW   15.5   18.7   15.9  1012.5  0.00  0.00   0.000   0.000   25.4    61   17.3   25.9  11.00  .0724    117    1    100.0    5 
19/09/18   2:45   18.3   18.3   18.3    81   15.0  15.0    SW   1.25  21.0    SW   15.7   18.7   16.1  1012.4  0.00  0.00   0.000   0.000   25.4    61   17.3   25.9  11.00  .0724    117    1    100.0    5 
19/09/18   2:50   18.3   18.3   18.3    81   15.0  15.0    SW   1.25  21.0    SW   15.6   18.7   16.0  1012.3  0.00  0.00   0.000   0.000   25.3    61   17.3   25.9  11.00  .0724    117    1    100.0    5 
19/09/18   2:55   18.3   18.3   18.2    81   15.0  16.0   SSW   1.33  21.0   SSW   15.4   18.7   15.8  1012.1  0.00  0.00   0.000   0.000   25.3    61   17.3   25.9  11.00  .0723    116    1    100.0    5 
19/09/18   3:00   18.3   18.3   18.2    81   15.0  17.0   SSW   1.42  22.0   SSW   15.3   18.7   15.7  1012.3  0.00  0.00   0.000   0.000   25.3    61   17.3   25.9  11.00  .0724    117    1    100.0    5 
19/09/18   3:05   18.3   18.3   18.3    81   15.0  17.0    SW   1.42  21.0    SW   15.3   18.7   15.7  1012.4  0.00  0.00   0.000   0.000   25.3    61   17.3   25.9  11.00  .0724    117    1    100.0    5 
19/09/18   3:10   18.3   18.3   18.3    81   15.0  17.0    SW   1.42  22.0    SW   15.3   18.7   15.7  1012.4  0.00  0.00   0.000   0.000   25.3    61   17.3   25.9  11.00  .0724    117    1    100.0    5 
19/09/18   3:15   18.3   18.3   18.3    81   15.0  17.0    SW   1.42  22.0   SSW   15.3   18.7   15.7  1012.5  0.00  0.00   0.000   0.000   25.3    61   17.3   25.9  11.00  .0724    117    1    100.0    5 
19/09/18   3:20   18.3   18.3   18.3    81   15.0  17.0    SW   1.42  22.0    SW   15.3   18.7   15.7  1012.5  0.00  0.00   0.000   0.000   25.3    61   17.3   25.9  11.00  .0724    115    1    100.0    5 
19/09/18   3:25   18.3   18.3   18.3    81   15.0  17.0    SW   1.42  21.0    SW   15.3   18.7   15.7  1012.5  0.00  0.00   0.000   0.000   25.3    61   17.3   25.9  11.00  .0724    117    1    100.0    5 
19/09/18   3:30   18.3   18.3   18.3    81   15.0  17.0    SW   1.42  22.0    SW   15.3   18.7   15.7  1012.5  0.00  0.00   0.000   0.000   25.3    61   17.2   25.8  11.00  .0724    116    1    100.0    5 
19/09/18   3:35   18.3   18.3   18.3    81   15.0  16.0    SW   1.33  20.0    SW   15.4   18.7   15.8  1012.5  0.00  0.00   0.000   0.000   25.3    61   17.2   25.8  11.00  .0724    117    1    100.0    5 
19/09/18   3:40   18.3   18.3   18.3    81   15.0  18.0    SW   1.50  22.0    SW   15.1   18.7   15.5  1012.3  0.00  0.00   0.000   0.000   25.3    61   17.2   25.8  11.00  .0724    117    1    100.0    5 
19/09/18   3:45   18.3   18.3   18.3    81   15.0  17.0    SW   1.42  22.0    SW   15.3   18.7   15.7  1012.3  0.00  0.00   0.000   0.000   25.3    61   17.3   25.9  11.00  .0724    115    1    100.0    5 
19/09/18   3:50   18.2   18.3   18.2    81   14.9  16.0    SW   1.33  22.0   SSW   15.4   18.6   15.8  1012.2  0.00  0.00   0.000   0.000   25.3    61   17.3   25.9  11.00  .0724    117    1    100.0    5 
19/09/18   3:55   18.2   18.3   18.2    82   15.1  16.0    SW   1.33  22.0    SW   15.4   18.6   15.8  1012.2  0.00  0.00   0.000   0.000   25.4    61   17.3   25.9  11.00  .0723    117    1    100.0    5 
19/09/18   4:00   18.2   18.2   18.2    82   15.1  18.0    SW   1.50  22.0    SW   15.1   18.6   15.4  1012.3  0.00  0.00   0.000   0.000   25.4    61   17.4   26.0  10.99  .0723    118    1    100.0    5 
19/09/18   4:05   18.2   18.2   18.2    82   15.0  18.0    SW   1.50  23.0    SW   15.0   18.6   15.4  1012.4  0.00  0.00   0.001   0.000   25.4    61   17.4   26.0  10.99  .0723    116    1    100.0    5 
19/09/18   4:10   18.2   18.2   18.2    82   15.1  18.0    SW   1.50  23.0    SW   15.1   18.6   15.4  1012.4  0.00  0.00   0.000   0.000   25.4    61   17.3   25.9  11.00  .0724    117    1    100.0    5 
19/09/18   4:15   18.2   18.2   18.2    82   15.1  17.0    SW   1.42  22.0    SW   15.2   18.6   15.6  1012.4  0.00  0.00   0.000   0.000   25.3    61   17.3   25.9  11.00  .0724    117    1    100.0    5 
19/09/18   4:20   18.2   18.2   18.2    82   15.0  18.0    SW   1.50  23.0    SW   15.0   18.6   15.4  1012.4  0.00  0.00   0.001   0.000   25.3    61   17.3   25.9  11.00  .0724    117    1    100.0    5 
19/09/18   4:25   18.2   18.2   18.2    82   15.1  17.0    SW   1.42  24.0    SW   15.2   18.6   15.6  1012.4  0.00  0.00   0.000   0.000   25.3    62   17.5   25.9  11.20  .0723    117    1    100.0    5 
19/09/18   4:30   18.2   18.2   18.2    82   15.1  19.0    SW   1.58  25.0    SW   14.9   18.6   15.3  1012.3  0.00  0.00   0.000   0.000   25.3    62   17.5   25.9  11.20  .0724    115    1    100.0    5 
19/09/18   4:35   18.2   18.2   18.2    82   15.1  19.0    SW   1.58  24.0    SW   14.9   18.6   15.3  1012.3  0.00  0.00   0.000   0.000   25.3    62   17.5   25.9  11.20  .0724    117    1    100.0    5 
19/09/18   4:40   18.2   18.2   18.2    82   15.1  19.0    SW   1.58  23.0    SW   14.9   18.6   15.3  1012.2  0.00  0.00   0.000   0.000   25.3    62   17.5   25.9  11.20  .0724    115    1    100.0    5 
19/09/18   4:45   18.2   18.2   18.2    82   15.1  19.0    SW   1.58  22.0   SSW   14.9   18.6   15.3  1012.2  0.00  0.00   0.000   0.000   25.3    62   17.5   25.9  11.20  .0723    116    1    100.0    5 
19/09/18   4:50   18.2   18.2   18.2    82   15.0  20.0   SSW   1.67  23.0   SSW   14.7   18.6   15.1  1012.1  0.00  0.00   0.001   0.000   25.2    62   17.4   25.8  11.20  .0724    115    1    100.0    5 
19/09/18   4:55   18.2   18.2   18.2    82   15.0  19.0   SSW   1.58  22.0    SW   14.9   18.6   15.3  1012.0  0.00  0.00   0.001   0.000   25.2    62   17.4   25.8  11.20  .0723    116    1    100.0    5 
19/09/18   5:00   18.2   18.2   18.2    82   15.0  18.0   SSW   1.50  23.0   SSW   15.0   18.6   15.4  1012.0  0.00  0.00   0.001   0.000   25.2    62   17.4   25.8  11.20  .0724    117    1    100.0    5 
19/09/18   5:05   18.2   18.2   18.2    82   15.0  20.0   SSW   1.67  24.0   SSW   14.7   18.6   15.1  1012.0  0.00  0.00   0.001   0.000   25.2    62   17.4   25.8  11.20  .0723    118    1    100.0    5 
19/09/18   5:10   18.2   18.2   18.2    82   15.0  19.0   SSW   1.58  23.0    SW   14.9   18.6   15.3  1012.0  0.00  0.00   0.001   0.000   25.2    62   17.4   25.8  11.20  .0724    117    1    100.0    5 
19/09/18   5:15   18.2   18.2   18.1    82   15.0  19.0   SSW   1.58  24.0    SW   14.9   18.6   15.3  1012.1  0.00  0.00   0.001   0.000   25.2    62   17.4   25.8  11.20  .0724    115    1    100.0    5 
19/09/18   5:20   18.2   18.2   18.1    82   15.0  20.0   SSW   1.67  24.0    SW   14.7   18.6   15.1  1012.0  0.00  0.00   0.001   0.000   25.2    62   17.4   25.8  11.20  .0724    116    1    100.0    5 
19/09/18   5:25   18.1   18.2   18.1    82   15.0  20.0   SSW   1.67  25.0    SW   14.7   18.5   15.1  1012.0  0.00  0.00   0.001   0.000   25.2    62   17.4   25.8  11.20  .0723    117    1    100.0    5 
19/09/18   5:30   18.1   18.2   18.1    82   15.0  19.0   SSW   1.58  23.0   SSW   14.8   18.5   15.2  1012.1  0.00  0.00   0.001   0.000   25.2    62   17.4   25.8  11.20  .0724    116    1    100.0    5 
19/09/18   5:35   18.1   18.2   18.1    83   15.2  18.0   SSW   1.50  22.0    SW   14.9   18.5   15.3  1012.0  0.00  0.00   0.001   0.000   25.2    62   17.4   25.7  11.20  .0724    116    1    100.0    5 
19/09/18   5:40   18.1   18.2   18.1    83   15.1  19.0   SSW   1.58  25.0   SSW   14.8   18.4   15.2  1012.0  0.00  0.00   0.001   0.000   25.2    62   17.4   25.8  11.20  .0724    117    1    100.0    5 
19/09/18   5:45   18.1   18.1   18.1    83   15.1  19.0    SW   1.58  23.0    SW   14.8   18.4   15.2  1012.0  0.00  0.00   0.001   0.000   25.2    62   17.4   25.7  11.20  .0724    117    1    100.0    5 
19/09/18   5:50   18.1   18.1   18.1    83   15.1  19.0    SW   1.58  24.0    SW   14.8   18.4   15.2  1012.1  0.00  0.00   0.001   0.000   25.2    62   17.4   25.8  11.20  .0724    117    1    100.0    5 
19/09/18   5:55   18.1   18.1   18.0    83   15.1  20.0    SW   1.67  26.0    SW   14.6   18.4   15.0  1012.2  0.00  0.00   0.001   0.000   25.2    62   17.4   25.8  11.20  .0724    114    1    100.0    5 
19/09/18   6:00   18.1   18.1   18.1    83   15.2  19.0    SW   1.58  25.0    SW   14.8   18.5   15.2  1012.1  0.00  0.00   0.001   0.000   25.2    62   17.4   25.8  11.20  .0724    117    1    100.0    5 
19/09/18   6:05   18.0   18.1   18.0    83   15.1  18.0    SW   1.50  24.0    SW   14.8   18.3   15.1  1012.1  0.00  0.00   0.001   0.000   25.2    62   17.4   25.7  11.20  .0724    116    1    100.0    5 
19/09/18   6:10   17.9   18.0   17.9    83   15.0  19.0    SW   1.58  23.0    SW   14.6   18.3   14.9  1012.0  0.00  0.00   0.001   0.000   25.2    62   17.4   25.7  11.20  .0724    116    1    100.0    5 
19/09/18   6:15   18.0   18.0   17.9    83   15.1  18.0    SW   1.50  23.0    SW   14.8   18.3   15.1  1012.2  0.00  0.00   0.001   0.000   25.2    62   17.4   25.7  11.20  .0724    116    1    100.0    5 
19/09/18   6:20   18.0   18.1   18.0    83   15.1  19.0    SW   1.58  24.0    SW   14.7   18.3   15.0  1012.1  0.00  0.00   0.001   0.000   25.2    62   17.4   25.7  11.20  .0724    116    1    100.0    5 
19/09/18   6:25   18.1   18.1   18.0    83   15.1  19.0    SW   1.58  24.0    SW   14.8   18.4   15.2  1012.1  0.00  0.00   0.001   0.000   25.2    62   17.4   25.7  11.20  .0724    116    1    100.0    5 
19/09/18   6:30   18.1   18.1   18.0    83   15.1  20.0    SW   1.67  23.0    SW   14.6   18.4   15.0  1012.2  0.00  0.00   0.001   0.000   25.2    62   17.4   25.7  11.20  .0724    117    1    100.0    5 
19/09/18   6:35   18.1   18.1   18.1    83   15.1  20.0    SW   1.67  24.0    SW   14.6   18.4   15.0  1012.1  0.00  0.00   0.001   0.000   25.2    62   17.4   25.7  11.20  .0724    116    1    100.0    5 
19/09/18   6:40   18.1   18.1   18.1    83   15.2  19.0    SW   1.58  25.0    SW   14.8   18.5   15.2  1012.1  0.00  0.00   0.001   0.000   25.2    62   17.4   25.7  11.20  .0724    117    1    100.0    5 
19/09/18   6:45   18.1   18.1   18.1    83   15.2  18.0    SW   1.50  22.0   SSW   14.9   18.5   15.3  1012.2  0.00  0.00   0.001   0.000   25.2    62   17.4   25.7  11.20  .0724    116    1    100.0    5 
19/09/18   6:50   18.1   18.1   18.1    83   15.1  19.0    SW   1.58  24.0   SSW   14.8   18.4   15.2  1012.3  0.00  0.00   0.001   0.000   25.2    62   17.4   25.7  11.20  .0724    115    1    100.0    5 
19/09/18   6:55   18.1   18.1   18.1    83   15.2  17.0   SSW   1.42  22.0   SSW   15.1   18.5   15.5  1012.3  0.00  0.00   0.001   0.000   25.2    62   17.4   25.7  11.20  .0724    117    1    100.0    5 
19/09/18   7:00   18.1   18.1   18.1    83   15.2  19.0   SSW   1.58  22.0   SSW   14.8   18.5   15.2  1012.3  0.00  0.00   0.001   0.000   25.2    65   18.1   25.9  11.80  .0723    117    1    100.0    5 
19/09/18   7:05   18.1   18.1   18.1    83   15.2  19.0    SW   1.58  23.0   SSW   14.8   18.5   15.2  1012.3  0.00  0.00   0.001   0.000   25.2    67   18.7   26.1  12.20  .0723    116    1    100.0    5 
19/09/18   7:10   18.2   18.2   18.1    83   15.2  18.0    SW   1.50  24.0    SW   15.0   18.6   15.4  1012.4  0.00  0.00   0.001   0.000   25.3    66   18.5   26.1  12.00  .0723    117    1    100.0    5 
19/09/18   7:15   18.2   18.2   18.1    83   15.2  18.0    SW   1.50  23.0    SW   15.0   18.6   15.4  1012.3  0.00  0.00   0.001   0.000   25.3    65   18.2   26.1  11.80  .0723    117    1    100.0    5 
19/09/18   7:20   18.1   18.2   18.1    83   15.2  19.0    SW   1.58  22.0    SW   14.8   18.5   15.2  1012.4  0.00  0.00   0.001   0.000   25.3    65   18.2   26.1  11.80  .0723    116    1    100.0    5 
19/09/18   7:25   18.2   18.2   18.1    83   15.2  19.0    SW   1.58  24.0    SW   14.9   18.6   15.3  1012.4  0.00  0.00   0.001   0.000   25.3    64   18.0   26.1  11.60  .0723    117    1    100.0    5 
19/09/18   7:30   18.2   18.2   18.2    83   15.2  19.0    SW   1.58  24.0    SW   14.9   18.6   15.3  1012.5  0.00  0.00   0.001   0.000   25.3    64   18.0   26.1  11.60  .0723    117    1    100.0    5 
19/09/18   7:35   18.2   18.2   18.2    83   15.2  19.0   SSW   1.58  24.0   SSW   14.9   18.6   15.3  1012.4  0.00  0.00   0.001   0.000   25.3    64   18.0   26.1  11.60  .0723    117    1    100.0    5 
19/09/18   7:40   18.2   18.2   18.2    83   15.3  17.0   SSW   1.42  22.0   SSW   15.2   18.6   15.6  1012.6  0.00  0.00   0.000   0.000   25.4    64   18.1   26.1  11.60  .0723    117    1    100.0    5 
19/09/18   7:45   18.2   18.2   18.2    83   15.3  19.0    SW   1.58  23.0   SSW   14.9   18.6   15.3  1012.6  0.00  0.00   0.000   0.000   25.4    64   18.1   26.1  11.60  .0723    117    1    100.0    5 
19/09/18   7:50   18.2   18.2   18.1    83   15.2  20.0    SW   1.67  28.0    SW   14.7   18.6   15.1  1012.6  0.00  0.00   0.001   0.000   25.4    63   17.8   26.1  11.40  .0723    116    1    100.0    5 
19/09/18   7:55   18.2   18.2   18.2    83   15.2  19.0    SW   1.58  23.0   SSW   14.9   18.6   15.3  1012.7  0.00  0.00   0.001   0.000   25.4    63   17.8   26.1  11.40  .0723    117    1    100.0    5 
19/09/18   8:00   18.2   18.2   18.2    83   15.2  19.0   SSW   1.58  23.0    SW   14.9   18.6   15.3  1012.5  0.00  0.00   0.001   0.000   25.4    63   17.8   26.1  11.40  .0723    117    1    100.0    5 
19/09/18   8:05   18.2   18.2   18.2    83   15.2  20.0   SSW   1.67  25.0   SSW   14.7   18.6   15.1  1012.6  0.00  0.00   0.001   0.000   25.5    63   17.9   26.2  11.39  .0723    116    1    100.0    5 
19/09/18   8:10   18.2   18.2   18.2    83   15.2  20.0    SW   1.67  25.0    SW   14.7   18.6   15.1  1012.6  0.00  0.00   0.001   0.000   25.5    63   17.9   26.2  11.39  .0723    116    1    100.0    5 
19/09/18   8:15   18.2   18.2   18.2    83   15.3  21.0   SSW   1.75  26.0   SSW   14.7   18.6   15.1  1012.5  0.00  0.00   0.000   0.000   25.5    63   17.9   26.2  11.39  .0723    118    1    100.0    5 
19/09/18   8:20   18.2   18.3   18.2    83   15.3  21.0   SSW   1.75  26.0   SSW   14.7   18.6   15.1  1012.6  0.00  0.00   0.000   0.000   25.5    63   17.9   26.2  11.39  .0723    116    1    100.0    5 
19/09/18   8:25   18.2   18.3   18.2    82   15.1  22.0   SSW   1.83  27.0    SW   14.6   18.6   15.0  1012.5  0.00  0.00   0.000   0.000   25.5    63   17.9   26.2  11.39  .0723    117    1    100.0    5 
19/09/18   8:30   18.3   18.3   18.2    83   15.3  21.0   SSW   1.75  25.0   SSW   14.8   18.7   15.2  1012.6  0.00  0.00   0.000   0.000   25.4    63   17.9   26.1  11.39  .0723    115    1    100.0    5 
19/09/18   8:35   18.2   18.3   18.2    83   15.3  22.0   SSW   1.83  28.0   SSW   14.6   18.6   15.0  1012.6  0.00  0.00   0.000   0.000   25.4    63   17.9   26.1  11.39  .0723    116    1    100.0    5 
19/09/18   8:40   18.3   18.3   18.2    83   15.3  22.0   SSW   1.83  27.0   SSW   14.7   18.7   15.1  1012.6  0.00  0.00   0.000   0.000   25.4    63   17.9   26.1  11.39  .0723    116    1    100.0    5 
19/09/18   8:45   18.3   18.3   18.2    83   15.3  21.0   SSW   1.75  26.0   SSW   14.8   18.7   15.2  1012.7  0.00  0.00   0.000   0.000   25.4    63   17.9   26.1  11.39  .0723    117    1    100.0    5 
19/09/18   8:50   18.3   18.3   18.3    83   15.3  21.0   SSW   1.75  27.0   SSW   14.8   18.7   15.2  1012.6  0.00  0.00   0.000   0.000   25.4    63   17.9   26.1  11.39  .0723    115    1    100.0    5 
19/09/18   8:55   18.3   18.3   18.2    83   15.3  21.0   SSW   1.75  29.0   SSW   14.8   18.7   15.2  1012.7  0.00  0.00   0.000   0.000   25.5    63   17.9   26.2  11.39  .0723    117    1    100.0    5 
19/09/18   9:00   18.2   18.3   18.2    83   15.3  21.0   SSW   1.75  27.0   SSW   14.7   18.6   15.1  1012.7  0.00  0.00   0.000   0.000   25.4    63   17.9   26.1  11.39  .0723    114    1    100.0    5 
19/09/18   9:05   18.3   18.3   18.2    83   15.3  22.0   SSW   1.83  27.0   SSW   14.7   18.7   15.1  1012.7  0.00  0.00   0.000   0.000   25.5    63   17.9   26.2  11.39  .0723    117    1    100.0    5 
19/09/18   9:10   18.3   18.3   18.3    83   15.4  20.0   SSW   1.67  24.0   SSW   14.9   18.8   15.4  1012.8  0.00  0.00   0.000   0.000   25.5    63   17.9   26.2  11.39  .0723    117    1    100.0    5 
19/09/18   9:15   18.3   18.3   18.3    83   15.3  21.0   SSW   1.75  24.0   SSW   14.8   18.7   15.2  1012.8  0.00  0.00   0.000   0.000   25.5    63   17.9   26.2  11.39  .0723    118    1    100.0    5 
19/09/18   9:20   18.3   18.3   18.3    82   15.2  22.0   SSW   1.83  27.0   SSW   14.7   18.7   15.1  1012.8  0.00  0.00   0.000   0.000   25.5    63   17.9   26.2  11.39  .0723    117    1    100.0    5 
19/09/18   9:25   18.3   18.3   18.3    83   15.4  22.0   SSW   1.83  26.0   SSW   14.7   18.8   15.2  1012.9  0.00  0.00   0.000   0.000   25.6    63   18.0   26.2  11.39  .0723    117    1    100.0    5 
19/09/18   9:30   18.3   18.3   18.3    83   15.4  22.0   SSW   1.83  27.0   SSW   14.7   18.8   15.2  1012.9  0.00  0.00   0.000   0.000   25.6    63   18.0   26.2  11.39  .0723    116    1    100.0    5 
19/09/18   9:35   18.4   18.4   18.3    83   15.4  22.0   SSW   1.83  27.0   SSW   14.8   18.8   15.2  1013.0  0.00  0.00   0.000   0.000   25.6    63   18.0   26.2  11.39  .0723    117    1    100.0    5 
19/09/18   9:40   18.4   18.4   18.4    83   15.5  22.0   SSW   1.83  27.0   SSW   14.8   18.9   15.3  1013.1  0.00  0.00   0.000   0.000   25.6    63   18.0   26.3  11.39  .0723    117    1    100.0    5 
19/09/18   9:45   18.4   18.4   18.4    83   15.5  21.0   SSW   1.75  27.0   SSW   14.9   18.9   15.4  1013.1  0.00  0.00   0.000   0.000   25.6    63   18.0   26.3  11.39  .0723    117    1    100.0    5 
19/09/18   9:50   18.4   18.4   18.4    83   15.4  22.0   SSW   1.83  28.0   SSW   14.8   18.8   15.2  1013.1  0.00  0.00   0.000   0.000   25.6    63   18.0   26.3  11.39  .0723    117    1    100.0    5 
19/09/18   9:55   18.4   18.4   18.4    83   15.5  21.0   SSW   1.75  26.0   SSW   14.9   18.9   15.4  1013.1  0.00  0.00   0.000   0.000   25.7    63   18.1   26.4  11.39  .0723    117    1    100.0    5 
19/09/18  10:00   18.5   18.5   18.4    83   15.6  22.0   SSW   1.83  27.0   SSW   14.9   18.9   15.3  1013.1  0.00  0.00   0.000   0.001   25.7    63   18.1   26.4  11.39  .0723    117    1    100.0    5 
19/09/18  10:05   18.6   18.6   18.5    82   15.4  23.0   SSW   1.92  28.0    SW   14.8   19.0   15.3  1013.0  0.00  0.00   0.000   0.001   25.7    63   18.1   26.4  11.38  .0722    117    1    100.0    5 
19/09/18  10:10   18.6   18.6   18.6    82   15.5  23.0   SSW   1.92  29.0    SW   14.9   19.1   15.4  1012.9  0.00  0.00   0.000   0.001   25.7    63   18.1   26.4  11.38  .0722    115    1    100.0    5 
19/09/18  10:15   18.7   18.7   18.6    82   15.5  24.0   SSW   2.00  29.0   SSW   14.9   19.2   15.4  1012.9  0.00  0.00   0.000   0.001   25.7    63   18.1   26.4  11.38  .0722    117    1    100.0    5 
19/09/18  10:20   18.7   18.7   18.7    82   15.6  23.0   SSW   1.92  28.0   SSW   15.1   19.2   15.6  1013.0  0.00  0.00   0.000   0.001   25.8    63   18.2   26.5  11.38  .0722    117    1    100.0    5 
19/09/18  10:25   18.7   18.8   18.7    82   15.5  23.0   SSW   1.92  29.0   NNW   15.0   19.2   15.5  1013.1  0.00  0.00   0.000   0.001   25.8    62   18.0   26.5  11.18  .0722    117    1    100.0    5 
19/09/18  10:30   18.7   18.7   18.6    82   15.5  22.0   SSW   1.83  29.0   SSW   15.1   19.2   15.6  1013.0  0.00  0.00   0.000   0.001   25.8    62   18.0   26.5  11.18  .0722    117    1    100.0    5 
19/09/18  10:35   18.7   18.7   18.6    82   15.5  24.0   SSW   2.00  31.0   SSW   14.9   19.2   15.4  1013.1  0.00  0.00   0.000   0.001   25.9    62   18.0   26.6  11.18  .0722    117    1    100.0    5 
19/09/18  10:40   18.6   18.7   18.6    82   15.5  22.0   SSW   1.83  29.0    SW   15.1   19.1   15.5  1013.1  0.00  0.00   0.000   0.001   25.9    62   18.0   26.6  11.18  .0722    117    1    100.0    5 
19/09/18  10:45   18.6   18.7   18.6    82   15.5  22.0   SSW   1.83  28.0   SSW   15.1   19.1   15.5  1013.1  0.00  0.00   0.000   0.001   25.9    62   18.0   26.6  11.18  .0722    116    1    100.0    5 
19/09/18  10:50   18.6   18.6   18.6    82   15.5  23.0   SSW   1.92  30.0   SSW   14.9   19.1   15.4  1013.1  0.00  0.00   0.000   0.001   25.9    62   18.0   26.6  11.18  .0722    117    1    100.0    5 
19/09/18  10:55   18.7   18.7   18.6    82   15.5  24.0   SSW   2.00  30.0   SSW   14.9   19.2   15.4  1013.0  0.00  0.00   0.000   0.001   25.9    62   18.0   26.6  11.18  .0722    116    1    100.0    5 
19/09/18  11:00   18.7   18.7   18.7    82   15.6  23.0   SSW   1.92  27.0   SSW   15.1   19.2   15.6  1013.0  0.00  0.00   0.000   0.001   25.9    62   18.0   26.6  11.18  .0722    114    1    100.0    5 
19/09/18  11:05   18.9   18.9   18.8    82   15.7  21.0   SSW   1.75  27.0   SSW   15.4   19.4   15.9  1013.0  0.00  0.00   0.000   0.002   25.9    62   18.0   26.6  11.18  .0722    117    1    100.0    5 
19/09/18  11:10   18.9   18.9   18.8    82   15.8  22.0   SSW   1.83  27.0   SSW   15.4   19.5   15.9  1013.0  0.00  0.00   0.000   0.002   25.9    62   18.1   26.7  11.18  .0722    116    1    100.0    5 
19/09/18  11:15   19.1   19.1   18.9    82   15.9  21.0    SW   1.75  25.0   SSW   15.6   19.6   16.2  1013.2  0.00  0.00   0.000   0.003   25.9    62   18.1   26.7  11.18  .0722    116    1    100.0    5 
19/09/18  11:20   19.2   19.2   19.1    82   16.0  21.0   SSW   1.75  27.0    SW   15.8   19.8   16.4  1013.2  0.00  0.00   0.000   0.003   26.0    62   18.2   26.7  11.17  .0722    118    1    100.0    5 
19/09/18  11:25   19.3   19.3   19.2    81   15.9  20.0    SW   1.67  25.0    SW   16.0   19.9   16.6  1013.2  0.00  0.00   0.000   0.003   26.1    62   18.2   26.8  11.17  .0722    117    1    100.0    5 
19/09/18  11:30   19.3   19.3   19.2    81   15.9  21.0   SSW   1.75  27.0   SSW   15.9   19.9   16.5  1013.2  0.00  0.00   0.000   0.003   26.1    62   18.3   26.8  11.17  .0722    117    1    100.0    5 
19/09/18  11:35   19.2   19.3   19.2    81   15.8  22.0   SSW   1.83  26.0   SSW   15.7   19.7   16.2  1013.2  0.00  0.00   0.000   0.003   26.1    62   18.3   26.8  11.17  .0721    116    1    100.0    5 
19/09/18  11:40   19.1   19.2   19.1    81   15.8  22.0   SSW   1.83  26.0   SSW   15.6   19.7   16.1  1013.2  0.00  0.00   0.000   0.003   26.2    62   18.3   26.9  11.17  .0721    116    1    100.0    5 
19/09/18  11:45   19.1   19.1   19.1    82   15.9  20.0   SSW   1.67  26.0   SSW   15.7   19.6   16.3  1013.3  0.00  0.00   0.000   0.003   26.2    62   18.3   26.9  11.17  .0721    117    1    100.0    5 
19/09/18  11:50   19.1   19.1   19.1    81   15.7  21.0   SSW   1.75  26.0   SSW   15.6   19.6   16.2  1013.2  0.00  0.00   0.000   0.003   26.2    62   18.3   26.9  11.17  .0721    116    1    100.0    5 
19/09/18  11:55   19.1   19.1   19.0    81   15.7  21.0    SW   1.75  26.0   SSW   15.6   19.6   16.2  1013.2  0.00  0.00   0.000   0.003   26.2    62   18.4   27.0  11.17  .0721    117    1    100.0    5 
19/09/18  12:00   19.1   19.2   19.1    82   16.0  19.0   SSW   1.58  24.0   SSW   15.9   19.7   16.5  1013.2  0.00  0.00   0.000   0.003   26.2    62   18.4   27.0  11.17  .0721    116    1    100.0    5 
19/09/18  12:05   19.1   19.2   19.1    81   15.8  19.0   SSW   1.58  23.0    SW   15.9   19.7   16.5  1013.2  0.00  0.00   0.000   0.003   26.2    62   18.4   27.0  11.17  .0721    117    1    100.0    5 
19/09/18  12:10   19.1   19.1   19.1    81   15.7  20.0   SSW   1.67  24.0    SW   15.7   19.6   16.3  1013.3  0.00  0.00   0.000   0.003   26.2    61   18.1   26.9  10.97  .0721    117    1    100.0    5 
19/09/18  12:15   19.0   19.1   19.0    81   15.7  23.0   SSW   1.92  31.0   SSW   15.3   19.6   15.9  1013.1  0.00  0.00   0.000   0.002   26.3    61   18.2   27.0  10.96  .0721    116    1    100.0    5 
19/09/18  12:20   19.0   19.0   19.0    81   15.7  22.0   SSW   1.83  29.0    SW   15.4   19.6   16.0  1013.1  0.00  0.00   0.000   0.002   26.3    61   18.2   27.0  10.96  .0721    116    1    100.0    5 
19/09/18  12:25   18.9   19.0   18.9    82   15.8  24.0   SSW   2.00  31.0   SSW   15.2   19.5   15.8  1013.0  0.00  0.00   0.000   0.002   26.2    61   18.1   26.9  10.97  .0721    117    1    100.0    5 
19/09/18  12:30   18.9   18.9   18.9    81   15.6  27.0   SSW   2.25  33.0    SW   14.9   19.4   15.4  1013.0  0.00  0.00   0.000   0.002   26.2    61   18.1   26.9  10.97  .0721    117    1    100.0    5 
19/09/18  12:35   19.1   19.1   18.9    81   15.7  26.0   SSW   2.17  35.0   SSW   15.2   19.6   15.7  1012.9  0.00  0.00   0.000   0.003   26.2    61   18.1   26.9  10.97  .0721    116    1    100.0    5 
19/09/18  12:40   19.3   19.3   19.1    81   15.9  26.0   SSW   2.17  36.0   SSW   15.4   19.9   16.1  1013.1  0.00  0.00   0.000   0.003   26.2    61   18.1   26.9  10.97  .0721    116    1    100.0    5 
19/09/18  12:45   19.3   19.3   19.2    81   16.0  26.0   SSW   2.17  33.0   SSW   15.5   19.9   16.1  1013.0  0.00  0.00   0.000   0.003   26.2    61   18.1   26.9  10.97  .0721    116    1    100.0    5 
19/09/18  12:50   19.1   19.3   19.1    81   15.8  27.0    SW   2.25  35.0   SSW   15.2   19.7   15.7  1013.2  0.00  0.00   0.000   0.003   26.3    61   18.2   27.0  10.96  .0721    116    1    100.0    5 
19/09/18  12:55   19.0   19.1   18.9    81   15.7  27.0    SW   2.25  33.0    SW   15.0   19.6   15.6  1013.2  0.00  0.00   0.000   0.002   26.3    61   18.2   27.0  10.96  .0721    117    1    100.0    5 
19/09/18  13:00   19.1   19.1   19.0    81   15.8  25.0    SW   2.08  34.0    SW   15.3   19.7   15.9  1013.3  0.00  0.00   0.000   0.003   26.3    61   18.2   27.0  10.96  .0721    117    1    100.0    5 
19/09/18  13:05   19.2   19.2   19.2    81   15.8  23.0    SW   1.92  30.0    SW   15.6   19.7   16.1  1013.2  0.00  0.00   0.000   0.003   26.3    61   18.2   27.0  10.96  .0721    117    1    100.0    5 
19/09/18  13:10   19.4   19.4   19.2    81   16.0  25.0    SW   2.08  31.0   SSW   15.7   20.0   16.3  1013.3  0.00  0.00   0.000   0.004   26.3    61   18.2   27.1  10.96  .0721    117    1    100.0    5 
19/09/18  13:15   19.4   19.4   19.3    80   15.9  25.0    SW   2.08  34.0    SW   15.7   20.1   16.3  1013.3  0.00  0.00   0.000   0.004   26.3    61   18.2   27.1  10.96  .0721    116    1    100.0    5 
19/09/18  13:20   19.4   19.4   19.4    80   15.8  27.0    SW   2.25  35.0    SW   15.5   20.0   16.1  1013.3  0.00  0.00   0.000   0.004   26.3    61   18.2   27.1  10.96  .0721    116    1    100.0    5 
19/09/18  13:25   19.4   19.6   19.4    80   15.9  25.0    SW   2.08  33.0    SW   15.7   20.1   16.3  1013.3  0.00  0.00   0.000   0.004   26.4    61   18.3   27.1  10.96  .0721    117    1    100.0    5 
19/09/18  13:30   19.3   19.4   19.3    80   15.8  26.0    SW   2.17  33.0    SW   15.5   19.9   16.1  1013.3  0.00  0.00   0.000   0.003   26.4    61   18.3   27.1  10.96  .0721    117    1    100.0    5 
19/09/18  13:35   19.1   19.3   19.1    81   15.8  27.0    SW   2.25  35.0    SW   15.2   19.7   15.7  1013.3  0.00  0.00   0.000   0.003   26.4    61   18.3   27.2  10.96  .0721    116    1    100.0    5 
19/09/18  13:40   19.4   19.4   19.1    81   16.0  26.0    SW   2.17  35.0    SW   15.6   20.0   16.2  1013.3  0.00  0.00   0.000   0.004   26.4    61   18.3   27.2  10.96  .0721    114    1    100.0    5 
19/09/18  13:45   19.5   19.5   19.4    80   16.0  25.0    SW   2.08  32.0    SW   15.8   20.1   16.4  1013.3  0.00  0.00   0.000   0.004   26.4    61   18.3   27.2  10.96  .0721    117    1    100.0    5 
19/09/18  13:50   19.6   19.6   19.5    80   16.1  26.0    SW   2.17  33.0    SW   15.8   20.3   16.5  1013.4  0.00  0.00   0.000   0.004   26.5    61   18.4   27.3  10.96  .0721    117    1    100.0    5 
19/09/18  13:55   19.6   19.6   19.6    80   16.0  26.0    SW   2.17  33.0    SW   15.7   20.2   16.3  1013.4  0.00  0.00   0.000   0.004   26.5    61   18.4   27.3  10.96  .0721    116    1    100.0    5 
19/09/18  14:00   19.6   19.6   19.6    80   16.1  25.0    SW   2.08  34.0    SW   15.9   20.3   16.6  1013.4  0.00  0.00   0.000   0.004   26.6    61   18.4   27.3  10.95  .0720    117    1    100.0    5 
19/09/18  14:05   19.7   19.7   19.6    80   16.1  27.0    SW   2.25  35.0    SW   15.8   20.3   16.4  1013.3  0.00  0.00   0.000   0.005   26.6    61   18.5   27.4  10.95  .0720    116    1    100.0    5 
19/09/18  14:10   19.6   19.7   19.6    80   16.0  28.0    SW   2.33  37.0    SW   15.6   20.2   16.2  1013.3  0.00  0.00   0.000   0.004   26.6    61   18.5   27.4  10.95  .0720    116    1    100.0    5 
19/09/18  14:15   19.6   19.6   19.6    80   16.1  27.0    SW   2.25  33.0    SW   15.7   20.3   16.4  1013.4  0.00  0.00   0.000   0.004   26.7    61   18.5   27.4  10.95  .0720    116    1    100.0    5 
19/09/18  14:20   19.7   19.7   19.6    80   16.1  27.0    SW   2.25  33.0    SW   15.8   20.3   16.4  1013.4  0.00  0.00   0.000   0.005   26.7    61   18.6   27.6  10.95  .0720    116    1    100.0    5 
19/09/18  14:25   19.7   19.7   19.6    80   16.1  25.0    SW   2.08  31.0    SW   15.9   20.3   16.6  1013.4  0.00  0.00   0.000   0.005   26.7    61   18.6   27.6  10.95  .0720    117    1    100.0    5 
19/09/18  14:30   19.7   19.7   19.7    80   16.1  26.0    SW   2.17  34.0   WSW   15.9   20.3   16.6  1013.4  0.00  0.00   0.000   0.005   26.8    61   18.6   27.6  10.95  .0720    116    1    100.0    5 
19/09/18  14:35   19.7   19.7   19.7    80   16.1  26.0    SW   2.17  34.0    SW   15.9   20.3   16.6  1013.4  0.00  0.00   0.000   0.005   26.8    61   18.7   27.7  10.95  .0719    117    1    100.0    5 
19/09/18  14:40   19.7   19.7   19.6    80   16.1  26.0    SW   2.17  31.0    SW   15.9   20.3   16.6  1013.3  0.00  0.00   0.000   0.005   26.8    61   18.7   27.7  10.95  .0719    117    1    100.0    5 
19/09/18  14:45   19.7   19.7   19.6    80   16.1  26.0    SW   2.17  31.0    SW   15.9   20.3   16.6  1013.5  0.00  0.00   0.000   0.005   26.9    61   18.7   27.8  10.95  .0719    117    1    100.0    5 
19/09/18  14:50   19.7   19.7   19.7    80   16.2  26.0    SW   2.17  33.0    SW   15.9   20.4   16.6  1013.5  0.00  0.00   0.000   0.005   26.9    61   18.7   27.8  10.95  .0719    117    1    100.0    5 
19/09/18  14:55   19.7   19.7   19.7    80   16.1  26.0    SW   2.17  31.0    SW   15.9   20.3   16.6  1013.4  0.00  0.00   0.000   0.005   26.9    61   18.8   27.9  10.95  .0719    117    1    100.0    5 
19/09/18  15:00   19.7   19.7   19.7    80   16.1  27.0    SW   2.25  33.0    SW   15.8   20.3   16.4  1013.4  0.00  0.00   0.000   0.005   26.9    61   18.8   27.9  10.95  .0719    117    1    100.0    5 
19/09/18  15:05   19.6   19.7   19.6    80   16.1  27.0    SW   2.25  32.0    SW   15.7   20.3   16.4  1013.5  0.00  0.00   0.000   0.004   27.0    61   18.8   27.9  10.95  .0719    116    1    100.0    5 
19/09/18  15:10   19.6   19.6   19.5    81   16.2  27.0    SW   2.25  35.0    SW   15.7   20.2   16.3  1013.6  0.00  0.00   0.000   0.004   27.0    60   18.6   27.8  10.75  .0719    117    1    100.0    5 
19/09/18  15:15   19.6   19.6   19.5    80   16.1  28.0    SW   2.33  34.0    SW   15.7   20.3   16.3  1013.5  0.00  0.00   0.000   0.004   27.1    60   18.6   27.9  10.75  .0719    116    1    100.0    5 
19/09/18  15:20   19.7   19.8   19.6    80   16.2  24.0    SW   2.00  34.0    SW   16.1   20.4   16.8  1013.6  0.00  0.00   0.000   0.005   27.1    60   18.7   28.0  10.75  .0719    117    1    100.0    5 
19/09/18  15:25   19.8   19.8   19.7    80   16.2  25.0    SW   2.08  31.0    SW   16.1   20.4   16.8  1013.6  0.00  0.00   0.000   0.005   27.1    60   18.7   28.0  10.75  .0719    117    1    100.0    5 
19/09/18  15:30   19.7   19.8   19.7    81   16.3  23.0    SW   1.92  29.0    SW   16.1   20.3   16.8  1013.7  0.00  0.00   0.000   0.005   27.1    60   18.7   28.0  10.75  .0719    117    1    100.0    5 
19/09/18  15:35   19.7   19.7   19.7    81   16.3  23.0    SW   1.92  27.0    SW   16.1   20.3   16.8  1013.7  0.00  0.00   0.000   0.005   27.2    60   18.7   28.1  10.75  .0719    118    1    100.0    5 
19/09/18  15:40   19.6   19.7   19.6    81   16.2  22.0    SW   1.83  27.0    SW   16.1   20.2   16.7  1013.7  0.00  0.00   0.000   0.004   27.2    60   18.8   28.2  10.75  .0719    116    1    100.0    5 
19/09/18  15:45   19.4   19.6   19.4    81   16.0  24.0    SW   2.00  31.0    SW   15.7   20.0   16.3  1013.8  0.00  0.00   0.000   0.004   27.2    60   18.8   28.2  10.75  .0719    115    1    100.0    5 
19/09/18  15:50   19.4   19.4   19.4    81   16.0  22.0    SW   1.83  33.0    SW   15.9   20.0   16.5  1013.8  0.00  0.00   0.000   0.004   27.2    60   18.8   28.2  10.75  .0719    117    1    100.0    5 
19/09/18  15:55   19.3   19.4   19.3    81   16.0  22.0    SW   1.83  30.0    SW   15.8   19.9   16.4  1013.9  0.00  0.00   0.000   0.003   27.2    60   18.8   28.2  10.75  .0719    114    1    100.0    5 
19/09/18  16:00   19.3   19.3   19.3    81   15.9  22.0    SW   1.83  30.0    SW   15.8   19.9   16.4  1013.9  0.00  0.00   0.000   0.003   27.3    60   18.8   28.2  10.75  .0719    117    1    100.0    5 
19/09/18  16:05   19.2   19.3   19.2    81   15.9  22.0    SW   1.83  27.0    SW   15.7   19.8   16.3  1013.8  0.00  0.00   0.000   0.003   27.2    60   18.8   28.2  10.75  .0719    117    1    100.0    5 
19/09/18  16:10   19.2   19.2   19.2    82   16.1  21.0    SW   1.75  27.0    SW   15.8   19.8   16.4  1013.9  0.00  0.00   0.000   0.003   27.2    60   18.8   28.2  10.75  .0719    117    1    100.0    5 
19/09/18  16:15   19.2   19.3   19.2    81   15.9  21.0    SW   1.75  28.0    SW   15.8   19.8   16.4  1013.8  0.00  0.00   0.000   0.003   27.3    60   18.8   28.2  10.75  .0719    117    1    100.0    5 
19/09/18  16:20   19.3   19.3   19.2    81   15.9  22.0    SW   1.83  31.0   WSW   15.8   19.9   16.4  1013.8  0.00  0.00   0.000   0.003   27.3    60   18.9   28.3  10.75  .0718    116    1    100.0    5 
19/09/18  16:25   19.2   19.3   19.2    81   15.9  21.0    SW   1.75  27.0    SW   15.8   19.8   16.4  1013.8  0.00  0.00   0.000   0.003   27.3    60   18.9   28.3  10.75  .0718    117    1    100.0    5 
19/09/18  16:30   19.2   19.2   19.2    82   16.1  21.0    SW   1.75  28.0    SW   15.8   19.8   16.4  1013.8  0.00  0.00   0.000   0.003   27.3    60   18.9   28.3  10.75  .0718    115    1    100.0    5 
19/09/18  16:35   19.2   19.2   19.2    81   15.9  24.0    SW   2.00  29.0    SW   15.6   19.8   16.2  1013.7  0.00  0.00   0.000   0.003   27.3    60   18.9   28.3  10.75  .0718    117    1    100.0    5 
19/09/18  16:40   19.3   19.3   19.2    81   16.0  21.0    SW   1.75  28.0    SW   15.9   19.9   16.6  1013.7  0.00  0.00   0.000   0.003   27.4    60   18.9   28.4  10.75  .0718    118    1    100.0    5 
19/09/18  16:45   19.2   19.3   19.2    81   15.9  22.0    SW   1.83  26.0    SW   15.7   19.8   16.3  1013.8  0.00  0.00   0.000   0.003   27.3    60   18.9   28.3  10.75  .0718    116    1    100.0    5 
19/09/18  16:50   19.3   19.3   19.2    81   15.9  23.0    SW   1.92  28.0    SW   15.7   19.9   16.3  1013.9  0.00  0.00   0.000   0.003   27.3    60   18.9   28.3  10.75  .0718    115    1    100.0    5 
19/09/18  16:55   19.3   19.3   19.3    81   16.0  24.0    SW   2.00  30.0    SW   15.7   19.9   16.3  1013.9  0.00  0.00   0.000   0.003   27.4    60   18.9   28.4  10.75  .0718    115    1    100.0    5 
19/09/18  17:00   19.3   19.3   19.3    81   16.0  23.0    SW   1.92  32.0   WSW   15.8   19.9   16.4  1013.9  0.00  0.00   0.000   0.003   27.4    60   18.9   28.4  10.75  .0718    117    1    100.0    5 
19/09/18  17:05   19.2   19.3   19.2    81   15.9  21.0    SW   1.75  28.0    SW   15.8   19.8   16.4  1013.9  0.00  0.00   0.000   0.003   27.4    60   18.9   28.4  10.75  .0718    117    1    100.0    5 
19/09/18  17:10   19.2   19.2   19.2    81   15.8  22.0    SW   1.83  29.0   WSW   15.7   19.7   16.2  1013.9  0.00  0.00   0.000   0.003   27.4    60   18.9   28.4  10.75  .0718    116    1    100.0    5 
19/09/18  17:15   19.2   19.2   19.2    81   15.8  22.0    SW   1.83  28.0   WSW   15.7   19.7   16.2  1013.9  0.00  0.00   0.000   0.003   27.4    60   18.9   28.4  10.75  .0718    117    1    100.0    5 
19/09/18  17:20   19.1   19.2   19.1    81   15.8  24.0    SW   2.00  29.0    SW   15.4   19.7   15.9  1014.0  0.00  0.00   0.000   0.003   27.4    60   18.9   28.4  10.75  .0718    117    1    100.0    5 
19/09/18  17:25   19.2   19.2   19.1    82   16.0  21.0    SW   1.75  27.0    SW   15.8   19.8   16.4  1013.9  0.00  0.00   0.000   0.003   27.4    60   19.0   28.5  10.75  .0718    117    1    100.0    5 
19/09/18  17:30   19.1   19.2   19.1    82   16.0  23.0    SW   1.92  29.0    SW   15.5   19.7   16.1  1013.9  0.00  0.00   0.000   0.003   27.4    60   19.0   28.5  10.75  .0718    116    1    100.0    5 
19/09/18  17:35   19.1   19.1   19.1    81   15.7  22.0    SW   1.83  28.0    SW   15.5   19.6   16.1  1014.1  0.00  0.00   0.000   0.003   27.4    60   19.0   28.5  10.75  .0718    117    1    100.0    5 
19/09/18  17:40   19.1   19.1   19.0    82   15.9  21.0   WSW   1.75  26.0    SW   15.6   19.6   16.2  1014.0  0.00  0.00   0.000   0.003   27.4    60   19.0   28.5  10.75  .0718    118    1    100.0    5 
19/09/18  17:45   18.9   19.0   18.9    82   15.8  21.0   WSW   1.75  28.0   WSW   15.5   19.5   16.1  1014.0  0.00  0.00   0.000   0.002   27.4    60   19.0   28.5  10.75  .0718    117    1    100.0    5 
19/09/18  17:50   18.8   18.9   18.8    82   15.7  22.0    SW   1.83  26.0    SW   15.3   19.3   15.8  1014.1  0.00  0.00   0.000   0.002   27.4    60   18.9   28.4  10.75  .0718    117    1    100.0    5 
19/09/18  17:55   18.8   18.8   18.8    82   15.6  21.0   WSW   1.75  27.0   WSW   15.3   19.3   15.8  1014.0  0.00  0.00   0.000   0.002   27.4    60   18.9   28.4  10.75  .0718    116    1    100.0    5 
19/09/18  18:00   18.8   18.8   18.7    82   15.6  21.0    SW   1.75  26.0   WSW   15.3   19.3   15.8  1014.1  0.00  0.00   0.000   0.002   27.4    60   18.9   28.4  10.75  .0718    117    1    100.0    5 
19/09/18  18:05   18.7   18.8   18.7    82   15.6  22.0   WSW   1.83  25.0   WSW   15.2   19.2   15.7  1014.2  0.00  0.00   0.000   0.001   27.4    60   18.9   28.4  10.75  .0718    116    1    100.0    5 
19/09/18  18:10   18.7   18.8   18.7    82   15.6  21.0   WSW   1.75  27.0    SW   15.3   19.2   15.8  1014.2  0.00  0.00   0.000   0.001   27.3    60   18.9   28.3  10.75  .0719    116    1    100.0    5 
19/09/18  18:15   18.7   18.7   18.7    82   15.5  21.0   WSW   1.75  28.0   WSW   15.2   19.2   15.7  1014.3  0.00  0.00   0.000   0.001   27.3    60   18.9   28.3  10.75  .0719    116    1    100.0    5 
19/09/18  18:20   18.7   18.7   18.7    82   15.5  20.0   WSW   1.67  24.0   WSW   15.3   19.2   15.8  1014.3  0.00  0.00   0.000   0.001   27.4    60   18.9   28.4  10.75  .0719    117    1    100.0    5 
19/09/18  18:25   18.7   18.7   18.6    82   15.5  21.0   WSW   1.75  26.0   WSW   15.2   19.2   15.7  1014.4  0.00  0.00   0.000   0.001   27.3    60   18.9   28.3  10.75  .0719    117    1    100.0    5 
19/09/18  18:30   18.6   18.7   18.6    82   15.5  22.0   WSW   1.83  28.0   WSW   15.1   19.1   15.5  1014.5  0.00  0.00   0.000   0.001   27.3    60   18.9   28.3  10.75  .0719    116    1    100.0    5 
19/09/18  18:35   18.7   18.7   18.6    82   15.5  18.0   WSW   1.50  25.0   WSW   15.6   19.2   16.1  1014.5  0.00  0.00   0.000   0.001   27.3    60   18.8   28.2  10.75  .0719    117    1    100.0    5 
19/09/18  18:40   18.6   18.7   18.6    82   15.5  19.0   WSW   1.58  26.0   WSW   15.4   19.1   15.8  1014.5  0.00  0.00   0.000   0.001   27.3    60   18.8   28.2  10.75  .0719    117    1    100.0    5 
19/09/18  18:45   18.5   18.6   18.5    82   15.4  20.0   WSW   1.67  24.0   WSW   15.1   18.9   15.6  1014.4  0.00  0.00   0.000   0.001   27.3    60   18.8   28.2  10.75  .0719    118    1    100.0    5 
19/09/18  18:50   18.4   18.6   18.4    83   15.5  20.0   WSW   1.67  26.0   WSW   15.1   18.9   15.5  1014.4  0.00  0.00   0.000   0.000   27.3    60   18.8   28.2  10.75  .0719    116    1    100.0    5 
19/09/18  18:55   18.4   18.5   18.4    83   15.5  19.0   WSW   1.58  26.0   WSW   15.2   18.9   15.6  1014.4  0.00  0.00   0.000   0.000   27.2    60   18.8   28.2  10.75  .0719    117    1    100.0    5 
19/09/18  19:00   18.4   18.4   18.4    83   15.5  19.0   WSW   1.58  25.0    SW   15.2   18.9   15.6  1014.4  0.00  0.00   0.000   0.000   27.2    60   18.8   28.2  10.75  .0719    117    1    100.0    5 
19/09/18  19:05   18.4   18.4   18.4    83   15.4  20.0   WSW   1.67  25.0    SW   15.0   18.8   15.4  1014.4  0.00  0.00   0.000   0.000   27.2    60   18.7   28.1  10.75  .0719    117    1    100.0    5 
19/09/18  19:10   18.3   18.4   18.3    83   15.4  20.0   WSW   1.67  24.0   WSW   14.9   18.8   15.4  1014.4  0.00  0.00   0.000   0.000   27.2    60   18.7   28.1  10.75  .0719    117    1    100.0    5 
19/09/18  19:15   18.3   18.3   18.3    83   15.4  20.0   WSW   1.67  23.0   WSW   14.9   18.8   15.4  1014.4  0.00  0.00   0.000   0.000   27.2    60   18.7   28.1  10.75  .0719    115    1    100.0    5 
19/09/18  19:20   18.3   18.3   18.3    83   15.3  20.0   WSW   1.67  22.0    SW   14.9   18.7   15.3  1014.4  0.00  0.00   0.000   0.000   27.1    60   18.7   28.0  10.75  .0720    117    1    100.0    5 
19/09/18  19:25   18.3   18.3   18.3    83   15.3  19.0   WSW   1.58  22.0    SW   15.0   18.7   15.4  1014.4  0.00  0.00   0.000   0.000   27.1    60   18.7   28.0  10.75  .0720    117    1    100.0    5 
19/09/18  19:30   18.3   18.3   18.3    83   15.3  18.0   WSW   1.50  22.0    SW   15.1   18.7   15.5  1014.3  0.00  0.00   0.000   0.000   27.1    60   18.7   28.0  10.75  .0719    117    1    100.0    5 
19/09/18  19:35   18.3   18.3   18.2    83   15.3  18.0   WSW   1.50  21.0    SW   15.1   18.7   15.5  1014.5  0.00  0.00   0.000   0.000   27.1    60   18.6   27.9  10.75  .0720    117    1    100.0    5 
19/09/18  19:40   18.2   18.3   18.2    83   15.3  16.0    SW   1.33  20.0   WSW   15.4   18.6   15.8  1014.4  0.00  0.00   0.000   0.000   27.1    60   18.6   27.9  10.75  .0720    113    1     99.1    5 
19/09/18  19:45   18.2   18.2   18.2    83   15.3  17.0    SW   1.42  21.0   WSW   15.2   18.6   15.6  1014.5  0.00  0.00   0.000   0.000   27.0    60   18.6   27.8  10.75  .0720    117    1    100.0    5 
19/09/18  19:50   18.2   18.3   18.2    83   15.3  17.0    SW   1.42  22.0   WSW   15.2   18.6   15.6  1014.5  0.00  0.00   0.000   0.000   27.0    60   18.6   27.8  10.75  .0720    118    1    100.0    5 
19/09/18  19:55   18.3   18.3   18.2    83   15.3  17.0   WSW   1.42  24.0   WSW   15.3   18.7   15.7  1014.7  0.00  0.00   0.000   0.000   27.0    60   18.6   27.8  10.75  .0720    115    1    100.0    5 
19/09/18  20:00   18.2   18.3   18.2    83   15.3  19.0   WSW   1.58  26.0    SW   14.9   18.6   15.3  1014.8  0.00  0.00   0.000   0.000   26.9    60   18.5   27.8  10.75  .0720    116    1    100.0    5 
19/09/18  20:05   18.3   18.3   18.2    83   15.3  20.0   WSW   1.67  25.0   WSW   14.9   18.7   15.3  1014.8  0.00  0.00   0.000   0.000   26.9    60   18.5   27.8  10.75  .0720    117    1    100.0    5 
19/09/18  20:10   18.3   18.3   18.3    83   15.3  20.0   WSW   1.67  24.0   WSW   14.9   18.7   15.3  1014.8  0.00  0.00   0.000   0.000   26.9    59   18.3   27.7  10.55  .0721    116    1    100.0    5 
19/09/18  20:15   18.3   18.3   18.3    83   15.3  19.0   WSW   1.58  23.0   WSW   15.0   18.7   15.4  1014.8  0.00  0.00   0.000   0.000   26.9    60   18.5   27.7  10.75  .0721    117    1    100.0    5 
19/09/18  20:20   18.3   18.3   18.3    83   15.3  20.0   WSW   1.67  25.0   WSW   14.9   18.7   15.3  1014.8  0.00  0.00   0.000   0.000   26.9    60   18.5   27.7  10.75  .0721    116    1    100.0    5 
19/09/18  20:25   18.3   18.3   18.2    83   15.3  19.0   WSW   1.58  25.0   WSW   15.0   18.7   15.4  1014.9  0.00  0.00   0.000   0.000   26.9    59   18.2   27.6  10.55  .0721    117    1    100.0    5 
19/09/18  20:30   18.2   18.3   18.2    83   15.3  20.0   WSW   1.67  26.0   WSW   14.8   18.6   15.2  1014.9  0.00  0.00   0.000   0.000   26.9    59   18.2   27.6  10.55  .0721    117    1    100.0    5 
19/09/18  20:35   18.3   18.3   18.2    83   15.3  20.0   WSW   1.67  24.0   WSW   14.9   18.7   15.3  1014.8  0.00  0.00   0.000   0.000   26.8    59   18.1   27.6  10.55  .0721    117    1    100.0    5 
19/09/18  20:40   18.2   18.3   18.2    83   15.2  19.0    SW   1.58  25.0    SW   14.9   18.6   15.3  1014.7  0.00  0.00   0.001   0.000   26.8    59   18.1   27.6  10.55  .0721    117    1    100.0    5 
19/09/18  20:45   18.2   18.2   18.1    83   15.2  20.0    SW   1.67  25.0    SW   14.7   18.6   15.1  1014.8  0.00  0.00   0.001   0.000   26.8    59   18.1   27.5  10.55  .0721    116    1    100.0    5 
19/09/18  20:50   18.2   18.2   18.2    83   15.2  19.0    SW   1.58  22.0   WSW   14.9   18.6   15.3  1014.8  0.00  0.00   0.001   0.000   26.8    59   18.1   27.5  10.55  .0721    116    1    100.0    5 
19/09/18  20:55   18.1   18.2   18.1    83   15.2  19.0    SW   1.58  25.0   WSW   14.8   18.5   15.2  1014.8  0.00  0.00   0.001   0.000   26.8    59   18.1   27.5  10.55  .0721    117    1    100.0    5 
19/09/18  21:00   18.1   18.1   18.1    83   15.2  20.0   WSW   1.67  23.0    SW   14.7   18.5   15.1  1014.8  0.00  0.00   0.001   0.000   26.8    59   18.1   27.5  10.55  .0721    117    1    100.0    5 
19/09/18  21:05   18.1   18.1   18.1    83   15.1  20.0   WSW   1.67  24.0   WSW   14.6   18.4   15.0  1014.8  0.00  0.00   0.001   0.000   26.7    59   18.0   27.4  10.55  .0721    117    1    100.0    5 
19/09/18  21:10   18.1   18.1   18.1    83   15.2  19.0   WSW   1.58  23.0   WSW   14.8   18.5   15.2  1014.8  0.00  0.00   0.001   0.000   26.7    59   18.0   27.4  10.55  .0721    116    1    100.0    5 
19/09/18  21:15   18.1   18.1   18.1    83   15.1  19.0   WSW   1.58  23.0   WSW   14.8   18.4   15.2  1014.8  0.00  0.00   0.001   0.000   26.7    59   18.0   27.3  10.55  .0722    117    1    100.0    5 
19/09/18  21:20   18.1   18.1   18.1    83   15.1  20.0   WSW   1.67  23.0   WSW   14.6   18.4   15.0  1014.7  0.00  0.00   0.001   0.000   26.7    59   18.0   27.3  10.55  .0722    116    1    100.0    5 
19/09/18  21:25   18.0   18.1   18.0    83   15.1  19.0   WSW   1.58  24.0    SW   14.7   18.3   15.0  1014.8  0.00  0.00   0.001   0.000   26.7    59   18.0   27.3  10.55  .0722    114    1    100.0    5 
19/09/18  21:30   18.1   18.1   18.1    83   15.1  18.0    SW   1.50  24.0    SW   14.9   18.4   15.3  1014.7  0.00  0.00   0.001   0.000   26.6    59   17.9   27.3  10.55  .0722    117    1    100.0    5 
19/09/18  21:35   18.1   18.1   18.1    84   15.3  18.0    SW   1.50  23.0    SW   14.9   18.4   15.3  1014.7  0.00  0.00   0.001   0.000   26.6    59   17.9   27.3  10.55  .0722    117    1    100.0    5 
19/09/18  21:40   18.1   18.1   18.1    84   15.3  18.0    SW   1.50  23.0    SW   14.9   18.4   15.3  1014.7  0.00  0.00   0.001   0.000   26.6    59   17.9   27.3  10.55  .0722    117    1    100.0    5 
19/09/18  21:45   18.1   18.1   18.0    84   15.3  19.0    SW   1.58  24.0    SW   14.8   18.4   15.2  1014.6  0.00  0.00   0.001   0.000   26.6    59   17.9   27.2  10.56  .0722    117    1    100.0    5 
19/09/18  21:50   18.0   18.1   18.0    83   15.1  19.0    SW   1.58  24.0    SW   14.7   18.3   15.0  1014.7  0.00  0.00   0.001   0.000   26.6    59   17.9   27.2  10.56  .0722    117    1    100.0    5 
19/09/18  21:55   18.0   18.1   18.0    84   15.3  19.0    SW   1.58  22.0   WSW   14.7   18.4   15.1  1014.8  0.00  0.00   0.001   0.000   26.6    59   17.9   27.2  10.56  .0722    115    1    100.0    5 
19/09/18  22:00   18.0   18.1   18.0    84   15.3  18.0    SW   1.50  25.0   WSW   14.8   18.4   15.2  1014.7  0.00  0.00   0.001   0.000   26.6    59   17.9   27.2  10.56  .0722    116    1    100.0    5 
19/09/18  22:05   18.1   18.1   18.0    84   15.3  19.0    SW   1.58  23.0   WSW   14.8   18.4   15.2  1014.7  0.00  0.00   0.001   0.000   26.5    59   17.8   27.1  10.56  .0722    117    1    100.0    5 
19/09/18  22:10   18.1   18.1   18.0    84   15.3  17.0    SW   1.42  22.0    SW   15.1   18.4   15.4  1014.7  0.00  0.00   0.001   0.000   26.5    59   17.8   27.1  10.56  .0722    117    1    100.0    5 
19/09/18  22:15   18.0   18.1   18.0    84   15.3  18.0    SW   1.50  22.0    SW   14.8   18.4   15.2  1014.6  0.00  0.00   0.001   0.000   26.5    59   17.8   27.1  10.56  .0722    117    1    100.0    5 
19/09/18  22:20   18.0   18.0   18.0    84   15.3  19.0    SW   1.58  23.0   WSW   14.7   18.4   15.1  1014.6  0.00  0.00   0.001   0.000   26.5    60   18.1   27.2  10.76  .0722    117    1    100.0    5 
19/09/18  22:25   18.1   18.1   18.0    84   15.3  18.0    SW   1.50  22.0   WSW   14.9   18.4   15.3  1014.6  0.00  0.00   0.001   0.000   26.5    60   18.1   27.2  10.76  .0722    117    1    100.0    5 
19/09/18  22:30   18.0   18.1   18.0    84   15.3  17.0    SW   1.42  23.0   WSW   14.9   18.4   15.3  1014.5  0.00  0.00   0.001   0.000   26.5    60   18.1   27.2  10.76  .0722    117    1    100.0    5 
19/09/18  22:35   18.0   18.1   18.0    84   15.3  17.0    SW   1.42  21.0   WSW   14.9   18.4   15.3  1014.5  0.00  0.00   0.001   0.000   26.5    60   18.1   27.2  10.76  .0722    117    1    100.0    5 
19/09/18  22:40   18.1   18.1   18.0    84   15.3  17.0    SW   1.42  22.0    SW   15.1   18.4   15.4  1014.5  0.00  0.00   0.001   0.000   26.5    60   18.1   27.2  10.76  .0722    117    1    100.0    5 
19/09/18  22:45   18.1   18.1   18.0    84   15.3  17.0    SW   1.42  20.0    SW   15.1   18.4   15.4  1014.5  0.00  0.00   0.001   0.000   26.5    60   18.1   27.2  10.76  .0722    116    1    100.0    5 
19/09/18  22:50   18.1   18.1   18.0    84   15.3  17.0    SW   1.42  22.0    SW   15.1   18.4   15.4  1014.5  0.00  0.00   0.001   0.000   26.5    60   18.1   27.2  10.76  .0722    115    1    100.0    5 
19/09/18  22:55   18.0   18.1   18.0    84   15.3  18.0    SW   1.50  23.0   WSW   14.8   18.4   15.2  1014.5  0.00  0.00   0.001   0.000   26.5    60   18.1   27.2  10.76  .0722    116    1    100.0    5 
19/09/18  23:00   18.1   18.1   18.0    84   15.3  18.0    SW   1.50  23.0    SW   14.9   18.4   15.3  1014.5  0.00  0.00   0.001   0.000   26.5    60   18.1   27.2  10.76  .0722    116    1    100.0    5 
19/09/18  23:05   18.1   18.1   18.0    84   15.3  17.0    SW   1.42  22.0    SW   15.1   18.4   15.4  1014.5  0.00  0.00   0.001   0.000   26.5    60   18.1   27.2  10.76  .0722    117    1    100.0    5 
19/09/18  23:10   18.0   18.1   18.0    84   15.3  17.0    SW   1.42  22.0    SW   14.9   18.4   15.3  1014.4  0.00  0.00   0.001   0.000   26.5    60   18.1   27.2  10.76  .0722    116    1    100.0    5 
19/09/18  23:15   18.1   18.1   18.0    84   15.3  17.0    SW   1.42  22.0    SW   15.1   18.4   15.4  1014.4  0.00  0.00   0.001   0.000   26.5    60   18.1   27.2  10.76  .0722    115    1    100.0    5 
19/09/18  23:20   18.1   18.1   18.0    84   15.3  18.0    SW   1.50  22.0    SW   14.9   18.4   15.3  1014.3  0.00  0.00   0.001   0.000   26.5    60   18.1   27.2  10.76  .0721    117    1    100.0    5 
19/09/18  23:25   18.0   18.1   18.0    84   15.3  18.0    SW   1.50  23.0    SW   14.8   18.4   15.2  1014.2  0.00  0.00   0.001   0.000   26.4    60   18.1   27.1  10.77  .0722    117    1    100.0    5 
19/09/18  23:30   18.0   18.1   18.0    84   15.3  18.0    SW   1.50  22.0    SW   14.8   18.4   15.2  1014.3  0.00  0.00   0.001   0.000   26.4    60   18.1   27.1  10.77  .0722    117    1    100.0    5 
19/09/18  23:35   17.9   18.1   17.9    84   15.2  17.0    SW   1.42  21.0    SW   14.9   18.3   15.2  1014.2  0.00  0.00   0.001   0.000   26.4    60   18.1   27.1  10.77  .0722    117    1    100.0    5 
19/09/18  23:40   18.0   18.1   17.9    84   15.3  16.0    SW   1.33  21.0    SW   15.1   18.4   15.5  1014.2  0.00  0.00   0.001   0.000   26.4    60   18.1   27.1  10.77  .0722    117    1    100.0    5 
19/09/18  23:45   17.9   18.1   17.9    84   15.2  18.0    SW   1.50  22.0    SW   14.7   18.3   15.1  1014.2  0.00  0.00   0.001   0.000   26.4    60   18.0   27.1  10.77  .0722    117    1    100.0    5 
19/09/18  23:50   17.9   17.9   17.9    83   15.0  18.0    SW   1.50  23.0    SW   14.7   18.3   15.1  1014.2  0.00  0.00   0.001   0.000   26.4    60   18.0   27.1  10.77  .0722    117    1    100.0    5 
19/09/18  23:55   17.9   18.0   17.9    84   15.2  16.0    SW   1.33  20.0    SW   15.1   18.3   15.4  1014.1  0.00  0.00   0.001   0.000   26.4    61   18.3   27.1  10.96  .0721    117    1    100.0    5 
20/09/18  00:00   17.9   17.9   17.9    84   15.2  16.0    SW   1.33  20.0    SW   15.1   18.3   15.4  1014.1  0.00  0.00   0.001   0.000   26.4    61   18.3   27.2  10.96  .0721    117    1    100.0    5 
20/09/18   0:05   17.9   17.9   17.9    84   15.1  17.0    SW   1.42  21.0    SW   14.8   18.2   15.2  1014.0  0.00  0.00   0.002   0.000   26.4    61   18.3   27.2  10.96  .0721    114    1    100.0    5 
20/09/18   0:10   17.9   17.9   17.9    84   15.1  17.0    SW   1.42  21.0    SW   14.8   18.2   15.2  1014.2  0.00  0.00   0.002   0.000   26.4    61   18.3   27.2  10.96  .0721    117    1    100.0    5 
20/09/18   0:15   17.8   17.9   17.8    84   15.1  18.0    SW   1.50  23.0    SW   14.6   18.2   14.9  1014.1  0.00  0.00   0.002   0.000   26.4    61   18.3   27.2  10.96  .0721    116    1    100.0    5 
20/09/18   0:20   17.8   17.9   17.8    84   15.1  17.0    SW   1.42  21.0    SW   14.8   18.2   15.1  1014.1  0.00  0.00   0.002   0.000   26.4    61   18.3   27.1  10.96  .0721    116    1    100.0    5 
20/09/18   0:25   17.8   17.8   17.8    84   15.0  17.0    SW   1.42  20.0    SW   14.7   18.1   15.1  1014.1  0.00  0.00   0.002   0.000   26.4    61   18.3   27.1  10.96  .0721    117    1    100.0    5 
20/09/18   0:30   17.8   17.8   17.8    84   15.0  16.0    SW   1.33  21.0    SW   14.9   18.1   15.2  1014.0  0.00  0.00   0.002   0.000   26.4    61   18.3   27.2  10.96  .0721    116    1    100.0    5 
20/09/18   0:35   17.8   17.8   17.7    84   15.0  16.0    SW   1.33  20.0    SW   14.9   18.1   15.2  1014.0  0.00  0.00   0.002   0.000   26.4    61   18.3   27.2  10.96  .0721    116    1    100.0    5 
20/09/18   0:40   17.7   17.8   17.7    84   15.0  17.0    SW   1.42  20.0    SW   14.7   18.1   15.0  1014.0  0.00  0.00   0.002   0.000   26.4    61   18.3   27.2  10.96  .0721    117    1    100.0    5 
20/09/18   0:45   17.8   17.8   17.7    84   15.0  16.0    SW   1.33  20.0    SW   14.9   18.1   15.2  1014.1  0.00  0.00   0.002   0.000   26.4    61   18.3   27.2  10.96  .0721    117    1    100.0    5 
20/09/18   0:50   17.8   17.8   17.8    84   15.0  17.0    SW   1.42  20.0    SW   14.7   18.1   15.1  1014.0  0.00  0.00   0.002   0.000   26.4    61   18.3   27.1  10.96  .0721    117    1    100.0    5 
20/09/18   0:55   17.8   17.8   17.8    84   15.0  17.0    SW   1.42  21.0    SW   14.7   18.1   15.1  1014.1  0.00  0.00   0.002   0.000   26.4    61   18.3   27.1  10.96  .0721    117    1    100.0    5 
20/09/18   1:00   17.8   17.8   17.7    84   15.0  18.0    SW   1.50  22.0    SW   14.6   18.1   14.9  1014.1  0.00  0.00   0.002   0.000   26.4    61   18.3   27.1  10.96  .0721    117    1    100.0    5 
20/09/18   1:05   17.8   17.8   17.8    83   14.9  18.0    SW   1.50  22.0    SW   14.6   18.1   14.9  1014.1  0.00  0.00   0.002   0.000   26.4    61   18.3   27.1  10.96  .0721    117    1    100.0    5 
20/09/18   1:10   17.8   17.8   17.8    83   14.9  18.0    SW   1.50  22.0    SW   14.6   18.1   14.9  1014.1  0.00  0.00   0.002   0.000   26.3    61   18.2   27.1  10.96  .0722    115    1    100.0    5 
20/09/18   1:15   17.8   17.8   17.8    83   14.9  16.0    SW   1.33  20.0    SW   14.9   18.2   15.3  1014.0  0.00  0.00   0.002   0.000   26.3    61   18.2   27.1  10.96  .0722    117    1    100.0    5 
20/09/18   1:20   17.8   17.8   17.8    83   14.9  17.0    SW   1.42  21.0    SW   14.7   18.1   15.1  1014.0  0.00  0.00   0.002   0.000   26.3    61   18.2   27.1  10.96  .0722    116    1    100.0    5 
20/09/18   1:25   17.8   17.8   17.8    83   14.9  17.0    SW   1.42  21.0    SW   14.8   18.2   15.1  1014.1  0.00  0.00   0.002   0.000   26.3    61   18.2   27.1  10.96  .0722    117    1    100.0    5 
20/09/18   1:30   17.9   17.9   17.8    83   15.0  19.0    SW   1.58  23.0    SW   14.6   18.2   14.9  1013.9  0.00  0.00   0.002   0.000   26.3    61   18.2   27.1  10.96  .0722    118    1    100.0    5 
20/09/18   1:35   17.8   17.9   17.8    83   14.9  18.0    SW   1.50  23.0    SW   14.6   18.2   14.9  1014.0  0.00  0.00   0.002   0.000   26.3    61   18.2   27.0  10.96  .0722    116    1    100.0    5 
20/09/18   1:40   17.8   17.9   17.8    83   14.9  18.0    SW   1.50  23.0    SW   14.6   18.2   14.9  1014.0  0.00  0.00   0.002   0.000   26.3    61   18.2   27.0  10.96  .0722    117    1    100.0    5 
20/09/18   1:45   17.9   17.9   17.8    83   15.0  18.0    SW   1.50  23.0    SW   14.7   18.2   15.0  1013.9  0.00  0.00   0.002   0.000   26.3    61   18.2   27.0  10.96  .0722    117    1    100.0    5 
20/09/18   1:50   17.8   17.8   17.8    82   14.7  18.0    SW   1.50  24.0   WSW   14.6   18.2   14.9  1013.9  0.00  0.00   0.002   0.000   26.2    61   18.1   26.9  10.97  .0722    116    1    100.0    5 
20/09/18   1:55   17.8   17.9   17.8    83   14.9  17.0    SW   1.42  24.0    SW   14.8   18.2   15.1  1013.9  0.00  0.00   0.002   0.000   26.2    61   18.1   26.9  10.97  .0722    117    1    100.0    5 
20/09/18   2:00   17.8   17.9   17.8    82   14.7  18.0    SW   1.50  22.0    SW   14.6   18.2   14.9  1013.9  0.00  0.00   0.002   0.000   26.2    61   18.1   26.9  10.97  .0722    115    1    100.0    5 
20/09/18   2:05   17.8   17.8   17.8    83   14.9  18.0    SW   1.50  23.0    SW   14.6   18.2   14.9  1013.9  0.00  0.00   0.002   0.000   26.2    61   18.1   26.9  10.97  .0722    117    1    100.0    5 
20/09/18   2:10   17.8   17.8   17.8    83   14.9  17.0    SW   1.42  21.0    SW   14.8   18.2   15.1  1013.8  0.00  0.00   0.002   0.000   26.2    62   18.4   27.0  11.17  .0722    116    1    100.0    5 
20/09/18   2:15   17.8   17.8   17.8    83   14.9  16.0    SW   1.33  20.0    SW   14.9   18.2   15.3  1013.9  0.00  0.00   0.002   0.000   26.2    62   18.4   27.0  11.17  .0722    117    1    100.0    5 
20/09/18   2:20   17.9   17.9   17.8    83   15.0  17.0    SW   1.42  21.0    SW   14.8   18.2   15.2  1013.9  0.00  0.00   0.002   0.000   26.2    62   18.4   27.0  11.17  .0722    116    1    100.0    5 
20/09/18   2:25   17.9   17.9   17.9    83   15.0  18.0    SW   1.50  22.0    SW   14.7   18.2   15.0  1013.8  0.00  0.00   0.002   0.000   26.2    62   18.3   26.9  11.17  .0722    116    1    100.0    5 
20/09/18   2:30   17.9   17.9   17.9    83   15.0  18.0    SW   1.50  24.0    SW   14.7   18.3   15.1  1013.8  0.00  0.00   0.001   0.000   26.2    62   18.3   26.9  11.17  .0722    117    1    100.0    5 
20/09/18   2:35   17.9   17.9   17.9    83   15.0  18.0    SW   1.50  22.0    SW   14.7   18.3   15.1  1013.8  0.00  0.00   0.001   0.000   26.2    62   18.4   27.0  11.17  .0722    117    1    100.0    5 
20/09/18   2:40   17.9   17.9   17.9    83   15.0  19.0    SW   1.58  23.0    SW   14.6   18.3   14.9  1013.8  0.00  0.00   0.001   0.000   26.2    62   18.4   27.0  11.17  .0722    114    1    100.0    5 
20/09/18   2:45   18.0   18.0   17.9    83   15.1  19.0    SW   1.58  23.0    SW   14.7   18.3   15.0  1013.8  0.00  0.00   0.001   0.000   26.2    62   18.4   27.0  11.17  .0722    115    1    100.0    5 
20/09/18   2:50   17.9   18.0   17.9    83   15.0  18.0    SW   1.50  22.0    SW   14.7   18.3   15.1  1013.8  0.00  0.00   0.001   0.000   26.2    62   18.3   26.9  11.17  .0722    117    1    100.0    5 
20/09/18   2:55   18.0   18.0   17.9    83   15.1  19.0    SW   1.58  23.0    SW   14.7   18.3   15.0  1013.9  0.00  0.00   0.001   0.000   26.2    62   18.3   26.9  11.17  .0722    116    1    100.0    5 
20/09/18   3:00   18.0   18.1   18.0    83   15.1  17.0    SW   1.42  22.0    SW   14.9   18.3   15.3  1013.8  0.00  0.00   0.001   0.000   26.1    62   18.3   26.8  11.17  .0722    117    1    100.0    5 
20/09/18   3:05   17.9   18.0   17.9    83   15.0  19.0    SW   1.58  26.0    SW   14.6   18.3   14.9  1013.9  0.00  0.00   0.001   0.000   26.1    62   18.3   26.8  11.17  .0722    117    1    100.0    5 
20/09/18   3:10   18.0   18.0   17.9    83   15.1  18.0    SW   1.50  24.0    SW   14.8   18.3   15.1  1013.8  0.00  0.00   0.001   0.000   26.1    62   18.3   26.8  11.17  .0722    117    1    100.0    5 
20/09/18   3:15   17.9   18.0   17.9    83   15.0  19.0    SW   1.58  24.0    SW   14.6   18.3   14.9  1013.8  0.00  0.00   0.001   0.000   26.1    62   18.2   26.8  11.17  .0722    116    1    100.0    5 
20/09/18   3:20   18.0   18.0   17.9    83   15.1  18.0    SW   1.50  23.0   SSW   14.8   18.3   15.1  1013.8  0.00  0.00   0.001   0.000   26.1    62   18.2   26.8  11.17  .0722    117    1    100.0    5 
20/09/18   3:25   18.0   18.0   17.9    83   15.1  19.0    SW   1.58  24.0    SW   14.7   18.3   15.0  1013.7  0.00  0.00   0.001   0.000   26.1    62   18.2   26.8  11.17  .0722    116    1    100.0    5 
20/09/18   3:30   17.9   18.0   17.9    83   15.0  19.0    SW   1.58  24.0    SW   14.6   18.3   14.9  1013.6  0.00  0.00   0.001   0.000   26.0    62   18.2   26.7  11.17  .0722    116    1    100.0    5 
20/09/18   3:35   18.0   18.0   17.9    83   15.1  17.0    SW   1.42  24.0    SW   14.9   18.3   15.3  1013.5  0.00  0.00   0.001   0.000   26.0    62   18.2   26.7  11.17  .0722    118    1    100.0    5 
20/09/18   3:40   18.0   18.0   17.9    83   15.1  18.0    SW   1.50  22.0    SW   14.8   18.3   15.1  1013.5  0.00  0.00   0.001   0.000   26.0    62   18.2   26.7  11.17  .0722    117    1    100.0    5 
20/09/18   3:45   17.9   17.9   17.8    83   15.0  19.0    SW   1.58  27.0    SW   14.6   18.3   14.9  1013.5  0.00  0.00   0.001   0.000   26.0    62   18.2   26.7  11.17  .0722    117    1    100.0    5 
20/09/18   3:50   17.9   17.9   17.9    83   15.0  18.0    SW   1.50  24.0    SW   14.7   18.2   15.0  1013.4  0.00  0.00   0.002   0.000   26.0    62   18.2   26.7  11.17  .0722    116    1    100.0    5 
20/09/18   3:55   17.9   17.9   17.9    83   15.0  20.0    SW   1.67  27.0   WSW   14.4   18.2   14.7  1013.5  0.00  0.00   0.002   0.000   26.1    62   18.2   26.8  11.17  .0722    117    1    100.0    5 
20/09/18   4:00   17.9   17.9   17.9    83   15.0  22.0    SW   1.83  26.0   SSW   14.3   18.3   14.6  1013.5  0.00  0.00   0.001   0.000   26.1    62   18.2   26.8  11.17  .0722    114    1    100.0    5 
20/09/18   4:05   18.0   18.0   17.9    83   15.1  22.0    SW   1.83  27.0    SW   14.3   18.3   14.7  1013.5  0.00  0.00   0.001   0.000   26.1    62   18.2   26.8  11.17  .0722    117    1    100.0    5 
20/09/18   4:10   18.0   18.0   17.9    83   15.1  21.0    SW   1.75  27.0    SW   14.4   18.3   14.8  1013.4  0.00  0.00   0.001   0.000   26.1    62   18.2   26.8  11.17  .0722    116    1    100.0    5 
20/09/18   4:15   17.8   18.0   17.8    82   14.7  21.0    SW   1.75  26.0    SW   14.2   18.2   14.6  1013.3  0.00  0.00   0.002   0.000   26.0    62   18.2   26.7  11.17  .0722    116    1    100.0    5 
20/09/18   4:20   17.9   17.9   17.8    82   14.8  21.0    SW   1.75  27.0    SW   14.4   18.3   14.7  1013.2  0.00  0.00   0.001   0.000   26.0    62   18.2   26.7  11.17  .0722    116    1    100.0    5 
20/09/18   4:25   18.1   18.1   17.9    82   14.9  20.0    SW   1.67  27.0    SW   14.6   18.4   14.9  1013.1  0.00  0.00   0.001   0.000   25.9    62   18.1   26.7  11.18  .0722    117    1    100.0    5 
20/09/18   4:30   17.9   18.1   17.9    82   14.8  20.0    SW   1.67  24.0    SW   14.5   18.3   14.8  1013.1  0.00  0.00   0.001   0.000   25.9    62   18.1   26.7  11.18  .0722    117    1    100.0    5 
20/09/18   4:35   17.9   17.9   17.9    82   14.8  20.0    SW   1.67  27.0    SW   14.5   18.3   14.8  1013.2  0.00  0.00   0.001   0.000   25.9    62   18.1   26.7  11.18  .0722    116    1    100.0    5 
20/09/18   4:40   18.1   18.1   17.9    81   14.7  22.0    SW   1.83  27.0    SW   14.4   18.4   14.7  1013.1  0.00  0.00   0.001   0.000   25.9    62   18.1   26.7  11.18  .0722    118    1    100.0    5 
20/09/18   4:45   18.1   18.1   18.1    81   14.7  21.0    SW   1.75  27.0    SW   14.5   18.4   14.8  1013.1  0.00  0.00   0.001   0.000   25.9    62   18.0   26.6  11.18  .0722    116    1    100.0    5 
20/09/18   4:50   18.1   18.2   18.1    82   15.0  20.0    SW   1.67  26.0    SW   14.7   18.5   15.1  1013.1  0.00  0.00   0.001   0.000   25.9    62   18.0   26.6  11.18  .0722    117    1    100.0    5 
20/09/18   4:55   18.1   18.2   18.1    82   14.9  21.0    SW   1.75  26.0    SW   14.5   18.4   14.8  1013.1  0.00  0.00   0.001   0.000   25.9    61   17.8   26.5  10.98  .0722    116    1    100.0    5 
20/09/18   5:00   18.1   18.1   18.1    82   14.9  20.0    SW   1.67  24.0    SW   14.6   18.4   14.9  1013.0  0.00  0.00   0.001   0.000   25.8    61   17.7   26.4  10.98  .0722    117    1    100.0    5 
20/09/18   5:05   18.0   18.1   18.0    82   14.9  21.0    SW   1.75  28.0   SSW   14.4   18.3   14.8  1013.0  0.00  0.00   0.001   0.000   25.8    61   17.7   26.4  10.98  .0723    117    1    100.0    5 
20/09/18   5:10   18.0   18.1   18.0    82   14.9  22.0    SW   1.83  31.0    SW   14.3   18.3   14.7  1012.9  0.00  0.00   0.001   0.000   25.8    61   17.7   26.4  10.98  .0723    116    1    100.0    5 
20/09/18   5:15   17.9   17.9   17.9    82   14.8  22.0    SW   1.83  31.0    SW   14.3   18.3   14.6  1013.0  0.00  0.00   0.001   0.000   25.8    61   17.7   26.4  10.98  .0723    115    1    100.0    5 
20/09/18   5:20   17.9   17.9   17.9    82   14.8  23.0    SW   1.92  28.0    SW   14.2   18.3   14.5  1012.9  0.00  0.00   0.001   0.000   25.8    61   17.7   26.4  10.98  .0723    116    1    100.0    5 
20/09/18   5:25   18.0   18.0   17.9    82   14.9  23.0    SW   1.92  30.0    SW   14.2   18.3   14.6  1012.8  0.00  0.00   0.001   0.000   25.8    61   17.7   26.4  10.98  .0723    117    1    100.0    5 
20/09/18   5:30   18.0   18.1   18.0    82   14.9  23.0    SW   1.92  30.0    SW   14.2   18.3   14.6  1012.9  0.00  0.00   0.001   0.000   25.7    61   17.6   26.3  10.98  .0723    117    1    100.0    5 
20/09/18   5:35   18.0   18.1   18.0    82   14.9  22.0    SW   1.83  29.0    SW   14.3   18.3   14.7  1012.8  0.00  0.00   0.001   0.000   25.7    61   17.6   26.3  10.98  .0723    117    1    100.0    5 
20/09/18   5:40   18.0   18.0   17.9    82   14.9  21.0    SW   1.75  28.0    SW   14.4   18.3   14.8  1012.9  0.00  0.00   0.001   0.000   25.7    61   17.6   26.2  10.99  .0723    118    1    100.0    5 
20/09/18   5:45   17.9   18.0   17.9    82   14.8  23.0    SW   1.92  29.0    SW   14.2   18.3   14.5  1012.8  0.00  0.00   0.001   0.000   25.7    62   17.8   26.3  11.19  .0723    117    1    100.0    5 
20/09/18   5:50   17.9   17.9   17.9    83   15.0  23.0    SW   1.92  30.0    SW   14.2   18.3   14.5  1012.8  0.00  0.00   0.001   0.000   25.7    61   17.6   26.2  10.99  .0723    117    1    100.0    5 
20/09/18   5:55   17.9   17.9   17.9    82   14.8  23.0    SW   1.92  29.0    SW   14.1   18.2   14.4  1012.7  0.00  0.00   0.002   0.000   25.6    62   17.8   26.2  11.19  .0723    115    1    100.0    5 
20/09/18   6:00   17.9   17.9   17.9    82   14.8  24.0    SW   2.00  31.0    SW   14.1   18.3   14.4  1012.9  0.00  0.00   0.001   0.000   25.6    62   17.8   26.2  11.19  .0723    116    1    100.0    5 
20/09/18   6:05   17.9   17.9   17.9    82   14.8  23.0    SW   1.92  30.0    SW   14.2   18.3   14.5  1013.0  0.00  0.00   0.001   0.000   25.6    62   17.8   26.2  11.19  .0723    116    1    100.0    5 
20/09/18   6:10   18.0   18.0   17.9    82   14.9  21.0    SW   1.75  28.0    SW   14.4   18.3   14.8  1012.9  0.00  0.00   0.001   0.000   25.6    62   17.8   26.2  11.19  .0723    115    1    100.0    5 
20/09/18   6:15   17.9   18.0   17.9    82   14.8  22.0    SW   1.83  30.0    SW   14.3   18.3   14.6  1012.9  0.00  0.00   0.001   0.000   25.6    62   17.7   26.2  11.19  .0723    116    1    100.0    5 
20/09/18   6:20   17.9   18.0   17.9    82   14.8  21.0    SW   1.75  25.0    SW   14.4   18.3   14.7  1013.0  0.00  0.00   0.001   0.000   25.6    62   17.7   26.2  11.19  .0723    117    1    100.0    5 
20/09/18   6:25   17.9   17.9   17.9    82   14.8  22.0    SW   1.83  28.0    SW   14.3   18.3   14.6  1013.0  0.00  0.00   0.001   0.000   25.6    62   17.7   26.2  11.19  .0723    117    1    100.0    5 
20/09/18   6:30   17.9   18.0   17.9    82   14.8  22.0    SW   1.83  28.0    SW   14.3   18.3   14.6  1013.0  0.00  0.00   0.001   0.000   25.6    62   17.7   26.2  11.19  .0723    117    1    100.0    5 
20/09/18   6:35   17.9   17.9   17.9    82   14.8  22.0    SW   1.83  29.0    SW   14.2   18.2   14.5  1013.1  0.00  0.00   0.002   0.000   25.6    62   17.7   26.2  11.19  .0723    115    1    100.0    5 
20/09/18   6:40   17.9   17.9   17.8    82   14.8  22.0    SW   1.83  28.0    SW   14.2   18.2   14.5  1013.1  0.00  0.00   0.002   0.000   25.5    63   17.9   26.2  11.39  .0723    117    1    100.0    5 
20/09/18   6:45   17.8   17.9   17.8    82   14.7  22.0    SW   1.83  27.0    SW   14.1   18.2   14.4  1013.1  0.00  0.00   0.002   0.000   25.6    63   18.0   26.2  11.39  .0723    117    1    100.0    5 
20/09/18   6:50   17.8   17.9   17.8    82   14.7  21.0    SW   1.75  27.0    SW   14.2   18.2   14.6  1012.9  0.00  0.00   0.002   0.000   25.6    63   18.0   26.2  11.39  .0723    117    1    100.0    5 
20/09/18   6:55   17.8   17.9   17.8    82   14.7  22.0    SW   1.83  28.0    SW   14.1   18.2   14.4  1013.0  0.00  0.00   0.002   0.000   25.6    62   17.7   26.2  11.19  .0723    116    1    100.0    5 
20/09/18   7:00   17.9   17.9   17.8    82   14.8  20.0    SW   1.67  26.0    SW   14.5   18.3   14.8  1012.9  0.00  0.00   0.001   0.000   25.6    62   17.7   26.2  11.19  .0723    117    1    100.0    5 
20/09/18   7:05   17.9   17.9   17.8    82   14.8  21.0    SW   1.75  29.0    SW   14.3   18.2   14.6  1012.9  0.00  0.00   0.002   0.000   25.6    62   17.8   26.2  11.19  .0723    117    1    100.0    5 
20/09/18   7:10   17.9   17.9   17.9    82   14.8  20.0    SW   1.67  26.0    SW   14.4   18.2   14.7  1012.8  0.00  0.00   0.002   0.000   25.6    62   17.8   26.2  11.19  .0723    116    1    100.0    5 
20/09/18   7:15   17.8   17.9   17.8    82   14.7  21.0    SW   1.75  26.0    SW   14.2   18.2   14.6  1012.9  0.00  0.00   0.002   0.000   25.6    62   17.7   26.2  11.19  .0723    117    1    100.0    5 
20/09/18   7:20   17.9   17.9   17.8    82   14.8  21.0    SW   1.75  25.0    SW   14.4   18.3   14.7  1013.1  0.00  0.00   0.001   0.000   25.6    62   17.8   26.2  11.19  .0723    117    1    100.0    5 
20/09/18   7:25   17.9   17.9   17.9    82   14.8  20.0    SW   1.67  28.0    SW   14.4   18.2   14.7  1013.2  0.00  0.00   0.002   0.000   25.6    62   17.8   26.2  11.19  .0723    117    1    100.0    5 
20/09/18   7:30   17.9   17.9   17.9    82   14.8  21.0    SW   1.75  26.0    SW   14.3   18.2   14.6  1013.1  0.00  0.00   0.002   0.000   25.6    62   17.7   26.2  11.19  .0723    116    1    100.0    5 
20/09/18   7:35   17.9   17.9   17.8    82   14.8  19.0    SW   1.58  24.0    SW   14.6   18.2   14.9  1013.1  0.00  0.00   0.002   0.000   25.6    62   17.7   26.2  11.19  .0723    117    1    100.0    5 
20/09/18   7:40   17.9   17.9   17.8    82   14.8  21.0    SW   1.75  27.0    SW   14.3   18.2   14.6  1013.2  0.00  0.00   0.002   0.000   25.6    62   17.7   26.2  11.19  .0723    117    1    100.0    5 
20/09/18   7:45   17.9   17.9   17.9    82   14.8  21.0    SW   1.75  27.0    SW   14.4   18.3   14.7  1013.2  0.00  0.00   0.001   0.000   25.6    62   17.7   26.2  11.19  .0723    116    1    100.0    5 
20/09/18   7:50   17.9   18.0   17.9    82   14.8  20.0    SW   1.67  24.0    SW   14.5   18.3   14.8  1013.0  0.00  0.00   0.001   0.000   25.6    62   17.7   26.2  11.19  .0723    117    1    100.0    5 
20/09/18   7:55   17.9   17.9   17.9    82   14.8  22.0    SW   1.83  27.0    SW   14.3   18.3   14.6  1013.0  0.00  0.00   0.001   0.000   25.6    62   17.7   26.2  11.19  .0723    117    1    100.0    5 
20/09/18   8:00   17.9   18.0   17.9    82   14.8  21.0    SW   1.75  26.0    SW   14.4   18.3   14.7  1013.0  0.00  0.00   0.001   0.000   25.6    62   17.7   26.2  11.19  .0723    117    1    100.0    5 
20/09/18   8:05   17.9   18.0   17.9    82   14.8  21.0    SW   1.75  26.0    SW   14.4   18.3   14.7  1013.0  0.00  0.00   0.001   0.000   25.6    62   17.7   26.2  11.19  .0723    115    1    100.0    5 
20/09/18   8:10   18.0   18.0   17.9    82   14.9  19.0    SW   1.58  26.0    SW   14.7   18.3   15.0  1012.9  0.00  0.00   0.001   0.000   25.6    62   17.7   26.2  11.19  .0723    117    1    100.0    5 
20/09/18   8:15   17.9   18.0   17.9    82   14.8  20.0    SW   1.67  27.0    SW   14.5   18.3   14.8  1013.0  0.00  0.00   0.001   0.000   25.6    62   17.7   26.2  11.19  .0723    116    1    100.0    5 
20/09/18   8:20   17.9   17.9   17.9    82   14.8  21.0    SW   1.75  28.0    SW   14.4   18.3   14.7  1012.9  0.00  0.00   0.001   0.000   25.6    62   17.7   26.2  11.19  .0723    116    1    100.0    5 
20/09/18   8:25   17.9   17.9   17.9    82   14.8  21.0    SW   1.75  27.0    SW   14.4   18.3   14.7  1012.8  0.00  0.00   0.001   0.000   25.6    62   17.7   26.2  11.19  .0723    117    1    100.0    5 
20/09/18   8:30   17.9   17.9   17.9    82   14.8  21.0    SW   1.75  26.0    SW   14.4   18.3   14.7  1012.7  0.00  0.00   0.001   0.000   25.5    62   17.7   26.1  11.19  .0723    117    1    100.0    5 
20/09/18   8:35   17.9   18.0   17.9    82   14.8  20.0    SW   1.67  25.0    SW   14.5   18.3   14.8  1012.7  0.00  0.00   0.001   0.000   25.5    62   17.7   26.1  11.19  .0723    117    1    100.0    5 
20/09/18   8:40   17.9   17.9   17.9    82   14.8  21.0    SW   1.75  28.0    SW   14.4   18.3   14.7  1012.8  0.00  0.00   0.001   0.000   25.5    62   17.7   26.1  11.19  .0723    117    1    100.0    5 
20/09/18   8:45   18.0   18.0   17.9    82   14.9  20.0    SW   1.67  28.0   SSW   14.6   18.3   14.9  1012.8  0.00  0.00   0.001   0.000   25.5    62   17.7   26.1  11.19  .0723    117    1    100.0    5 
20/09/18   8:50   17.9   18.0   17.9    82   14.8  21.0    SW   1.75  30.0    SW   14.4   18.3   14.7  1012.8  0.00  0.00   0.001   0.000   25.4    62   17.6   26.1  11.19  .0723    118    1    100.0    5 
20/09/18   8:55   18.0   18.0   17.9    83   15.1  19.0    SW   1.58  24.0    SW   14.7   18.3   15.0  1012.8  0.00  0.00   0.001   0.000   25.4    62   17.6   26.1  11.19  .0723    116    1    100.0    5 
20/09/18   9:00   18.0   18.0   17.9    83   15.1  21.0    SW   1.75  26.0    SW   14.4   18.3   14.8  1013.0  0.00  0.00   0.001   0.000   25.4    62   17.6   26.1  11.19  .0724    117    1    100.0    5 
20/09/18   9:05   17.9   18.0   17.9    82   14.8  21.0    SW   1.75  26.0    SW   14.4   18.3   14.7  1012.9  0.00  0.00   0.001   0.000   25.4    62   17.6   26.0  11.20  .0724    116    1    100.0    5 
20/09/18   9:10   18.1   18.1   17.9    83   15.1  19.0    SW   1.58  26.0   SSW   14.8   18.4   15.2  1012.9  0.00  0.00   0.001   0.000   25.4    62   17.6   26.0  11.20  .0724    117    1    100.0    5 
20/09/18   9:15   18.0   18.1   18.0    83   15.1  21.0   SSW   1.75  26.0   SSW   14.4   18.3   14.8  1012.8  0.00  0.00   0.001   0.000   25.4    62   17.6   26.0  11.20  .0724    117    1    100.0    5 
20/09/18   9:20   18.0   18.1   18.0    82   14.9  22.0    SW   1.83  25.0   SSW   14.3   18.3   14.7  1012.8  0.00  0.00   0.001   0.000   25.4    62   17.6   26.0  11.20  .0724    116    1    100.0    5 
20/09/18   9:25   18.0   18.1   18.0    82   14.9  21.0   SSW   1.75  27.0   SSW   14.4   18.3   14.8  1012.8  0.00  0.00   0.001   0.000   25.4    61   17.3   25.9  11.00  .0724    116    1    100.0    5 
20/09/18   9:30   18.0   18.1   18.0    82   14.9  21.0    SW   1.75  28.0    SW   14.4   18.3   14.8  1012.7  0.00  0.00   0.001   0.000   25.3    61   17.3   25.9  11.00  .0724    117    1    100.0    5 
20/09/18   9:35   18.1   18.1   18.0    82   14.9  21.0    SW   1.75  27.0    SW   14.5   18.4   14.8  1012.8  0.00  0.00   0.001   0.000   25.4    61   17.3   25.9  11.00  .0724    115    1    100.0    5 
20/09/18   9:40   18.1   18.1   18.1    82   14.9  22.0    SW   1.83  27.0    SW   14.4   18.4   14.7  1012.7  0.00  0.00   0.001   0.000   25.3    61   17.3   25.9  11.00  .0724    116    1    100.0    5 
20/09/18   9:45   18.1   18.1   18.1    82   15.0  19.0   SSW   1.58  26.0   SSW   14.8   18.5   15.2  1012.7  0.00  0.00   0.001   0.000   25.3    61   17.3   25.9  11.00  .0724    116    1    100.0    5 
20/09/18   9:50   18.1   18.1   18.1    82   15.0  22.0    SW   1.83  28.0    SW   14.4   18.5   14.8  1012.8  0.00  0.00   0.001   0.000   25.3    61   17.3   25.9  11.00  .0724    117    1    100.0    5 
20/09/18   9:55   18.2   18.2   18.1    82   15.0  20.0    SW   1.67  24.0    SW   14.7   18.6   15.1  1012.8  0.00  0.00   0.001   0.000   25.3    61   17.3   25.9  11.00  .0724    117    1    100.0    5 
20/09/18  10:00   18.2   18.2   18.2    82   15.0  20.0    SW   1.67  25.0    SW   14.7   18.6   15.1  1012.8  0.00  0.00   0.001   0.000   25.3    61   17.2   25.8  11.00  .0724    117    1    100.0    5 
20/09/18  10:05   18.2   18.2   18.2    82   15.1  20.0    SW   1.67  25.0    SW   14.8   18.6   15.2  1012.7  0.00  0.00   0.000   0.000   25.3    61   17.3   25.9  11.00  .0724    116    1    100.0    5 
20/09/18  10:10   18.2   18.3   18.2    82   15.1  20.0    SW   1.67  26.0   SSW   14.8   18.6   15.2  1012.8  0.00  0.00   0.000   0.000   25.3    61   17.3   25.9  11.00  .0724    117    1    100.0    5 
20/09/18  10:15   18.3   18.3   18.2    82   15.2  18.0    SW   1.50  22.0    SW   15.1   18.7   15.5  1012.9  0.00  0.00   0.000   0.000   25.3    61   17.3   25.9  11.00  .0724    117    1    100.0    5 
20/09/18  10:20   18.2   18.3   18.2    82   15.1  20.0    SW   1.67  27.0    SW   14.8   18.6   15.2  1012.9  0.00  0.00   0.000   0.000   25.3    61   17.3   25.9  11.00  .0724    117    1    100.0    5 
20/09/18  10:25   18.2   18.2   18.2    82   15.1  21.0   SSW   1.75  27.0   SSW   14.7   18.6   15.1  1013.0  0.00  0.00   0.000   0.000   25.3    61   17.3   25.9  11.00  .0724    117    1    100.0    5 
20/09/18  10:30   18.2   18.2   18.2    82   15.1  19.0    SW   1.58  24.0   SSW   14.9   18.6   15.3  1012.9  0.00  0.00   0.000   0.000   25.3    61   17.3   25.9  11.00  .0724    117    1    100.0    5 
20/09/18  10:35   18.3   18.3   18.2    82   15.2  18.0    SW   1.50  24.0   SSW   15.1   18.7   15.5  1012.9  0.00  0.00   0.000   0.000   25.3    61   17.3   25.9  11.00  .0724    117    1    100.0    5 
20/09/18  10:40   18.3   18.3   18.2    82   15.2  19.0    SW   1.58  25.0   SSW   15.0   18.7   15.4  1012.9  0.00  0.00   0.000   0.000   25.4    61   17.3   25.9  11.00  .0724    116    1    100.0    5 
20/09/18  10:45   18.3   18.3   18.3    82   15.2  17.0    SW   1.42  25.0    SW   15.3   18.7   15.7  1012.9  0.00  0.00   0.000   0.000   25.4    61   17.3   25.9  11.00  .0724    115    1    100.0    5 
20/09/18  10:50   18.3   18.3   18.3    82   15.2  19.0    SW   1.58  24.0   SSW   15.0   18.7   15.4  1012.8  0.00  0.00   0.000   0.000   25.4    61   17.3   25.9  11.00  .0724    117    1    100.0    5 
20/09/18  10:55   18.3   18.3   18.3    82   15.2  19.0   SSW   1.58  24.0    SW   15.1   18.7   15.4  1012.8  0.00  0.00   0.000   0.000   25.4    61   17.3   25.9  11.00  .0724    118    1    100.0    5 
20/09/18  11:00   18.3   18.3   18.3    82   15.2  20.0    SW   1.67  24.0    SW   14.9   18.7   15.3  1012.8  0.00  0.00   0.000   0.000   25.4    61   17.3   25.9  11.00  .0724    117    1    100.0    5 
20/09/18  11:05   18.3   18.3   18.3    82   15.2  19.0   SSW   1.58  25.0   SSW   15.1   18.7   15.4  1012.9  0.00  0.00   0.000   0.000   25.4    61   17.3   25.9  11.00  .0724    116    1    100.0    5 
20/09/18  11:10   18.3   18.4   18.3    82   15.2  18.0    SW   1.50  24.0    SW   15.2   18.7   15.6  1012.9  0.00  0.00   0.000   0.000   25.4    61   17.3   25.9  11.00  .0724    116    1    100.0    5 
20/09/18  11:15   18.3   18.4   18.3    82   15.2  18.0    SW   1.50  24.0    SW   15.2   18.7   15.6  1012.9  0.00  0.00   0.000   0.000   25.4    61   17.4   26.0  10.99  .0724    117    1    100.0    5 
20/09/18  11:20   18.3   18.4   18.3    82   15.2  17.0    SW   1.42  23.0   SSW   15.3   18.7   15.7  1012.9  0.00  0.00   0.000   0.000   25.4    61   17.4   26.0  10.99  .0724    116    1    100.0    5 
20/09/18  11:25   18.3   18.3   18.3    81   15.0  18.0    SW   1.50  24.0    SW   15.2   18.7   15.6  1012.8  0.00  0.00   0.000   0.000   25.4    61   17.4   26.0  10.99  .0724    116    1    100.0    5 
20/09/18  11:30   18.4   18.4   18.3    82   15.3  18.0   SSW   1.50  23.0   SSW   15.2   18.8   15.7  1012.8  0.00  0.00   0.000   0.000   25.4    61   17.4   26.0  10.99  .0724    115    1    100.0    5 
20/09/18  11:35   18.4   18.4   18.4    82   15.3  17.0   SSW   1.42  22.0   SSW   15.4   18.9   15.9  1012.7  0.00  0.00   0.000   0.000   25.5    61   17.4   26.1  10.99  .0723    117    1    100.0    5 
20/09/18  11:40   18.3   18.4   18.3    81   15.0  19.0   SSW   1.58  24.0   SSW   15.1   18.7   15.4  1012.7  0.00  0.00   0.000   0.000   25.5    61   17.4   26.1  10.99  .0723    116    1    100.0    5 
20/09/18  11:45   18.4   18.4   18.3    81   15.1  20.0   SSW   1.67  23.0   SSW   15.0   18.8   15.4  1012.6  0.00  0.00   0.000   0.000   25.5    61   17.4   26.1  10.99  .0723    116    1    100.0    5 
20/09/18  11:50   18.4   18.4   18.3    81   15.1  20.0   SSW   1.67  25.0   SSW   15.1   18.9   15.5  1012.5  0.00  0.00   0.000   0.000   25.5    61   17.4   26.1  10.99  .0723    116    1    100.0    5 
20/09/18  11:55   18.5   18.5   18.4    81   15.2  20.0   SSW   1.67  24.0   SSW   15.1   18.9   15.6  1012.5  0.00  0.00   0.000   0.001   25.5    61   17.4   26.1  10.99  .0723    116    1    100.0    5 
20/09/18  12:00   18.6   18.6   18.5    81   15.2  22.0   SSW   1.83  25.0   SSW   14.9   19.0   15.4  1012.5  0.00  0.00   0.000   0.001   25.5    61   17.4   26.1  10.99  .0723    117    1    100.0    5 
20/09/18  12:05   18.6   18.6   18.6    81   15.2  21.0   SSW   1.75  26.0   SSW   15.1   19.0   15.5  1012.4  0.00  0.00   0.000   0.001   25.6    61   17.5   26.1  10.99  .0723    117    1    100.0    5 
20/09/18  12:10   18.6   18.7   18.6    81   15.3  21.0   SSW   1.75  25.0   SSW   15.2   19.1   15.6  1012.3  0.00  0.00   0.000   0.001   25.6    61   17.5   26.2  10.99  .0723    117    1    100.0    5 
20/09/18  12:15   18.6   18.6   18.6    81   15.2  21.0   SSW   1.75  25.0    SW   15.1   19.0   15.5  1012.3  0.00  0.00   0.000   0.001   25.6    61   17.5   26.2  10.99  .0723    117    1    100.0    5 
20/09/18  12:20   18.5   18.6   18.5    81   15.2  19.0   SSW   1.58  22.0   SSW   15.2   18.9   15.7  1012.3  0.00  0.00   0.000   0.001   25.6    61   17.5   26.2  10.99  .0723    114    1    100.0    5 
20/09/18  12:25   18.5   18.5   18.5    81   15.2  20.0   SSW   1.67  24.0   SSW   15.1   18.9   15.6  1012.2  0.00  0.00   0.000   0.001   25.7    61   17.6   26.2  10.99  .0722    117    1    100.0    5 
20/09/18  12:30   18.5   18.5   18.4    81   15.2  18.0   SSW   1.50  22.0   SSW   15.4   18.9   15.8  1012.2  0.00  0.00   0.000   0.001   25.7    61   17.6   26.3  10.98  .0722    117    1    100.0    5 
20/09/18  12:35   18.5   18.5   18.4    81   15.2  19.0    SW   1.58  23.0   SSW   15.2   18.9   15.7  1012.1  0.00  0.00   0.000   0.001   25.7    60   17.4   26.3  10.82  .0722    117    1    100.0    5 
20/09/18  12:40   18.6   18.6   18.5    81   15.2  20.0   SSW   1.67  25.0   SSW   15.2   19.0   15.6  1012.0  0.00  0.00   0.000   0.001   25.7    60   17.4   26.3  10.82  .0722    116    1    100.0    5 
20/09/18  12:45   18.6   18.6   18.5    81   15.2  19.0    SW   1.58  23.0   SSW   15.3   19.0   15.7  1012.0  0.00  0.00   0.000   0.001   25.7    60   17.4   26.3  10.82  .0722    115    1    100.0    5 
20/09/18  12:50   18.6   18.6   18.6    81   15.3  19.0   SSW   1.58  23.0    SW   15.4   19.1   15.8  1012.0  0.00  0.00   0.000   0.001   25.7    60   17.3   26.2  10.82  .0723    116    1    100.0    5 
20/09/18  12:55   18.6   18.6   18.6    81   15.2  19.0    SW   1.58  24.0    SW   15.3   19.0   15.7  1012.0  0.00  0.00   0.000   0.001   25.7    60   17.4   26.3  10.82  .0722    117    1    100.0    5 
20/09/18  13:00   18.6   18.6   18.6    80   15.1  18.0    SW   1.50  24.0    SW   15.5   19.1   15.9  1011.9  0.00  0.00   0.000   0.001   25.7    60   17.3   26.2  10.82  .0722    117    1    100.0    5 
20/09/18  13:05   18.6   18.6   18.6    80   15.0  20.0    SW   1.67  26.0    SW   15.2   19.0   15.6  1011.9  0.00  0.00   0.000   0.001   25.7    60   17.4   26.3  10.82  .0722    116    1    100.0    5 
20/09/18  13:10   18.7   18.7   18.6    80   15.1  20.0    SW   1.67  26.0    SW   15.3   19.1   15.8  1011.9  0.00  0.00   0.000   0.001   25.7    60   17.4   26.3  10.82  .0722    117    1    100.0    5 
20/09/18  13:15   18.7   18.7   18.7    80   15.2  19.0    SW   1.58  25.0    SW   15.5   19.2   15.9  1011.8  0.00  0.00   0.000   0.001   25.7    60   17.4   26.3  10.82  .0722    115    1    100.0    5 
20/09/18  13:20   18.7   18.7   18.7    80   15.2  19.0   SSW   1.58  25.0    SW   15.5   19.2   15.9  1011.7  0.00  0.00   0.000   0.001   25.7    60   17.4   26.3  10.82  .0722    116    1    100.0    5 
20/09/18  13:25   18.8   18.8   18.7    80   15.3  19.0   SSW   1.58  26.0    SW   15.6   19.3   16.1  1011.6  0.00  0.00   0.000   0.002   25.7    60   17.4   26.3  10.82  .0722    117    1    100.0    5 
20/09/18  13:30   18.8   18.8   18.8    80   15.3  20.0   SSW   1.67  27.0   SSW   15.4   19.3   15.9  1011.5  0.00  0.00   0.000   0.002   25.8    60   17.4   26.3  10.81  .0722    117    1    100.0    5 
20/09/18  13:35   18.8   18.8   18.8    80   15.3  20.0   SSW   1.67  23.0    SW   15.5   19.3   16.0  1011.5  0.00  0.00   0.000   0.002   25.8    60   17.4   26.3  10.81  .0722    116    1    100.0    5 
20/09/18  13:40   18.8   18.8   18.8    80   15.3  20.0   SSW   1.67  25.0   SSW   15.4   19.3   15.9  1011.4  0.00  0.00   0.000   0.002   25.8    60   17.5   26.4  10.81  .0722    117    1    100.0    5 
20/09/18  13:45   18.8   18.8   18.8    80   15.3  20.0   SSW   1.67  24.0   SSW   15.5   19.3   16.0  1011.4  0.00  0.00   0.000   0.002   25.8    60   17.5   26.4  10.81  .0722    117    1    100.0    5 
20/09/18  13:50   18.8   18.8   18.8    80   15.3  21.0   SSW   1.75  25.0    SW   15.3   19.3   15.8  1011.4  0.00  0.00   0.000   0.002   25.8    60   17.5   26.4  10.81  .0722    117    1    100.0    5 
20/09/18  13:55   18.8   18.8   18.8    80   15.3  20.0   SSW   1.67  27.0   SSW   15.4   19.3   15.9  1011.4  0.00  0.00   0.000   0.002   25.8    60   17.5   26.4  10.81  .0722    115    1    100.0    5 
20/09/18  14:00   18.8   18.8   18.8    80   15.3  20.0   SSW   1.67  26.0    SW   15.5   19.3   16.0  1011.4  0.00  0.00   0.000   0.002   25.8    60   17.5   26.4  10.81  .0722    117    1    100.0    5 
20/09/18  14:05   18.8   18.9   18.8    80   15.3  21.0   SSW   1.75  25.0    SW   15.4   19.3   15.9  1011.3  0.00  0.00   0.000   0.002   25.9    60   17.5   26.4  10.81  .0721    118    1    100.0    5 
20/09/18  14:10   19.0   19.0   18.8    80   15.5  21.0   SSW   1.75  28.0   SSW   15.6   19.5   16.1  1011.2  0.00  0.00   0.000   0.002   25.9    60   17.5   26.4  10.81  .0721    117    1    100.0    5 
20/09/18  14:15   19.1   19.1   19.0    80   15.6  21.0   SSW   1.75  26.0   SSW   15.7   19.7   16.2  1011.2  0.00  0.00   0.000   0.003   25.9    60   17.5   26.4  10.81  .0721    117    1    100.0    5 
20/09/18  14:20   19.1   19.2   19.1    79   15.4  21.0   SSW   1.75  26.0   SSW   15.7   19.6   16.2  1011.1  0.00  0.00   0.000   0.003   25.9    60   17.6   26.5  10.80  .0721    117    1    100.0    5 
20/09/18  14:25   19.2   19.2   19.1    79   15.4  19.0   SSW   1.58  23.0   SSW   16.0   19.7   16.5  1011.1  0.00  0.00   0.000   0.003   25.9    60   17.5   26.4  10.81  .0721    117    1    100.0    5 
20/09/18  14:30   19.2   19.2   19.2    79   15.5  20.0   SSW   1.67  25.0   SSW   15.9   19.7   16.4  1011.0  0.00  0.00   0.000   0.003   25.9    60   17.6   26.5  10.80  .0721    116    1    100.0    5 
20/09/18  14:35   19.2   19.3   19.2    79   15.5  20.0   SSW   1.67  25.0    SW   15.9   19.7   16.4  1011.0  0.00  0.00   0.000   0.003   26.0    60   17.6   26.6  10.80  .0721    117    1    100.0    5 
20/09/18  14:40   19.2   19.3   19.2    79   15.4  20.0   SSW   1.67  25.0   SSW   15.9   19.7   16.4  1011.1  0.00  0.00   0.000   0.003   26.0    60   17.6   26.6  10.80  .0721    117    1    100.0    5 
20/09/18  14:45   19.1   19.2   19.1    80   15.6  17.0   SSW   1.42  22.0    SW   16.2   19.7   16.8  1010.9  0.00  0.00   0.000   0.003   26.0    60   17.6   26.6  10.80  .0721    117    1    100.0    5 
20/09/18  14:50   19.0   19.1   19.0    80   15.5  18.0   SSW   1.50  23.0   SSW   15.9   19.5   16.4  1010.8  0.00  0.00   0.000   0.002   26.0    60   17.6   26.6  10.80  .0721    117    1    100.0    5 
20/09/18  14:55   19.0   19.0   18.9    80   15.5  17.0   SSW   1.42  22.0   SSW   16.1   19.5   16.6  1010.7  0.00  0.00   0.000   0.002   26.0    60   17.6   26.6  10.80  .0720    116    1    100.0    5 
20/09/18  15:00   19.0   19.0   18.9    80   15.5  16.0   SSW   1.33  20.0    SW   16.2   19.5   16.7  1010.6  0.00  0.00   0.000   0.002   26.0    60   17.6   26.6  10.80  .0720    116    1    100.0    5 
20/09/18  15:05   18.9   19.0   18.9    81   15.6  16.0   SSW   1.33  20.0   SSW   16.2   19.4   16.7  1010.7  0.00  0.00   0.000   0.002   26.0    60   17.6   26.6  10.80  .0720    116    1    100.0    5 
20/09/18  15:10   18.9   18.9   18.9    81   15.6  14.0   SSW   1.17  19.0   SSW   16.5   19.4   17.0  1010.6  0.00  0.00   0.000   0.002   25.9    60   17.6   26.5  10.80  .0721    118    1    100.0    5 
20/09/18  15:15   18.8   18.9   18.8    81   15.5  16.0   SSW   1.33  20.0   SSW   16.1   19.3   16.6  1010.5  0.00  0.00   0.000   0.002   25.9    60   17.6   26.5  10.80  .0721    117    1    100.0    5 
20/09/18  15:20   18.8   18.8   18.8    81   15.5  16.0   SSW   1.33  19.0   SSW   16.1   19.3   16.6  1010.4  0.00  0.00   0.000   0.002   25.9    60   17.6   26.5  10.80  .0720    116    1    100.0    5 
20/09/18  15:25   18.9   18.9   18.8    81   15.6  15.0   SSW   1.25  18.0   SSW   16.3   19.4   16.8  1010.3  0.00  0.00   0.000   0.002   25.9    60   17.6   26.5  10.80  .0720    117    1    100.0    5 
20/09/18  15:30   18.9   18.9   18.9    81   15.6  15.0   SSW   1.25  20.0   SSW   16.3   19.4   16.8  1010.3  0.00  0.00   0.000   0.002   25.9    60   17.6   26.5  10.80  .0720    117    1    100.0    5 
20/09/18  15:35   19.0   19.0   18.9    81   15.7  15.0   SSW   1.25  19.0   SSW   16.4   19.6   17.0  1010.1  0.00  0.00   0.000   0.002   25.9    60   17.6   26.5  10.80  .0720    117    1    100.0    5 
20/09/18  15:40   19.0   19.0   18.9    81   15.7  13.0   SSW   1.08  18.0   SSW   16.8   19.6   17.4  1010.1  0.00  0.00   0.000   0.002   25.9    60   17.6   26.5  10.80  .0720    117    1    100.0    5 
20/09/18  15:45   19.0   19.1   19.0    81   15.7  13.0   SSW   1.08  17.0   SSW   16.8   19.6   17.4  1010.0  0.00  0.00   0.000   0.002   25.9    60   17.6   26.5  10.80  .0720    115    1    100.0    5 
20/09/18  15:50   19.2   19.2   19.1    81   15.9  13.0   SSW   1.08  17.0   SSW   17.1   19.8   17.7  1009.9  0.00  0.00   0.000   0.003   25.9    60   17.6   26.5  10.80  .0720    116    1    100.0    5 
20/09/18  15:55   19.4   19.4   19.2    81   16.0  13.0   SSW   1.08  17.0   SSW   17.3   20.0   17.9  1009.8  0.00  0.00   0.000   0.004   26.0    60   17.6   26.6  10.80  .0720    117    1    100.0    5 
20/09/18  16:00   19.4   19.4   19.4    81   16.1  12.0     S   1.00  16.0     S   17.7   20.1   18.3  1009.7  0.00  0.00   0.000   0.004   26.0    60   17.6   26.6  10.80  .0720    116    1    100.0    5 
20/09/18  16:05   19.3   19.4   19.3    81   15.9  13.0     S   1.08  17.0   SSW   17.2   19.9   17.8  1009.6  0.00  0.00   0.000   0.003   26.1    60   17.7   26.7  10.79  .0720    116    1    100.0    5 
20/09/18  16:10   19.2   19.3   19.2    81   15.8  13.0     S   1.08  17.0     S   17.1   19.7   17.6  1009.6  0.00  0.00   0.000   0.003   26.1    60   17.7   26.7  10.79  .0720    116    1    100.0    5 
20/09/18  16:15   19.1   19.2   19.1    81   15.8  13.0   SSW   1.08  18.0   SSW   17.0   19.7   17.6  1009.5  0.00  0.00   0.000   0.003   26.1    60   17.7   26.7  10.79  .0719    116    1    100.0    5 
20/09/18  16:20   19.1   19.1   19.1    82   16.0  14.0     S   1.17  18.0   SSW   16.8   19.7   17.3  1009.4  0.00  0.00   0.000   0.003   26.1    60   17.7   26.7  10.79  .0719    117    1    100.0    5 
20/09/18  16:25   19.1   19.2   19.1    82   16.0  15.0     S   1.25  18.0     S   16.6   19.7   17.1  1009.3  0.00  0.00   0.000   0.003   26.1    60   17.7   26.7  10.79  .0719    117    1    100.0    5 
20/09/18  16:30   19.1   19.1   19.1    81   15.7  15.0   SSW   1.25  19.0   SSW   16.5   19.6   17.1  1009.2  0.00  0.00   0.000   0.003   26.1    60   17.7   26.7  10.79  .0719    117    1    100.0    5 
20/09/18  16:35   19.1   19.1   19.1    81   15.8  14.0   SSW   1.17  19.0   SSW   16.8   19.7   17.3  1009.2  0.00  0.00   0.000   0.003   26.1    60   17.7   26.7  10.79  .0719    117    1    100.0    5 
20/09/18  16:40   19.1   19.1   19.1    81   15.8  14.0   SSW   1.17  17.0   SSW   16.8   19.7   17.3  1009.2  0.00  0.00   0.000   0.003   26.1    60   17.7   26.7  10.79  .0719    117    1    100.0    5 
20/09/18  16:45   19.1   19.1   19.1    81   15.8  16.0   SSW   1.33  21.0   SSW   16.4   19.7   16.9  1009.1  0.00  0.00   0.000   0.003   26.1    60   17.7   26.7  10.79  .0719    116    1    100.0    5 
20/09/18  16:50   19.2   19.2   19.1    81   15.8  15.0   SSW   1.25  18.0   SSW   16.7   19.7   17.2  1008.9  0.00  0.00   0.000   0.003   26.1    60   17.7   26.7  10.79  .0719    116    1    100.0    5 
20/09/18  16:55   19.2   19.2   19.2    81   15.8  15.0   SSW   1.25  18.0   SSW   16.7   19.7   17.2  1008.9  0.00  0.00   0.000   0.003   26.1    60   17.7   26.7  10.79  .0719    117    1    100.0    5 
20/09/18  17:00   19.2   19.2   19.2    81   15.8  13.0   SSW   1.08  16.0   SSW   17.1   19.7   17.6  1008.9  0.00  0.00   0.000   0.003   26.1    60   17.7   26.7  10.79  .0719    117    1    100.0    5 
20/09/18  17:05   19.2   19.2   19.1    81   15.8  12.0   SSW   1.00  17.0   SSW   17.3   19.7   17.9  1008.8  0.00  0.00   0.000   0.003   26.1    60   17.7   26.7  10.79  .0719    117    1    100.0    5 
20/09/18  17:10   19.1   19.2   19.1    82   15.9  12.0   SSW   1.00  15.0   SSW   17.2   19.6   17.8  1008.7  0.00  0.00   0.000   0.003   26.1    60   17.7   26.7  10.79  .0719    115    1    100.0    5 
20/09/18  17:15   19.1   19.1   19.1    82   15.9  12.0   SSW   1.00  15.0   SSW   17.2   19.6   17.8  1008.8  0.00  0.00   0.000   0.003   26.1    60   17.7   26.7  10.79  .0719    118    1    100.0    5 
20/09/18  17:20   19.0   19.1   19.0    82   15.9  13.0   SSW   1.08  16.0   SSW   16.8   19.6   17.4  1008.7  0.00  0.00   0.000   0.002   26.1    60   17.7   26.7  10.79  .0719    117    1    100.0    5 
20/09/18  17:25   18.9   19.0   18.9    82   15.8  12.0   SSW   1.00  15.0   SSW   17.1   19.5   17.6  1008.6  0.00  0.00   0.000   0.002   26.1    60   17.7   26.7  10.79  .0719    116    1    100.0    5 
20/09/18  17:30   18.9   19.0   18.9    82   15.8  11.0   SSW   0.92  16.0   SSW   17.4   19.5   18.0  1008.5  0.00  0.00   0.000   0.002   26.1    60   17.7   26.7  10.79  .0719    117    1    100.0    5 
20/09/18  17:35   18.9   18.9   18.9    82   15.8  12.0   SSW   1.00  17.0   SSW   17.1   19.5   17.6  1008.4  0.00  0.00   0.000   0.002   26.0    60   17.6   26.6  10.80  .0719    116    1    100.0    5 
20/09/18  17:40   18.9   18.9   18.9    82   15.7  14.0   SSW   1.17  18.0   SSW   16.5   19.4   17.0  1008.3  0.00  0.00   0.000   0.002   26.0    60   17.6   26.6  10.80  .0719    117    1    100.0    5 
20/09/18  17:45   18.9   18.9   18.9    82   15.7  15.0   SSW   1.25  19.0   SSW   16.3   19.4   16.8  1008.0  0.00  0.00   0.000   0.002   26.0    60   17.6   26.6  10.80  .0719    117    1    100.0    5 
20/09/18  17:50   18.9   18.9   18.9    82   15.8  14.0   SSW   1.17  19.0   SSW   16.6   19.5   17.1  1007.9  0.00  0.00   0.000   0.002   26.0    60   17.6   26.6  10.80  .0718    117    1    100.0    5 
20/09/18  17:55   19.0   19.0   18.9    82   15.9  16.0   SSW   1.33  20.0   SSW   16.2   19.6   16.8  1007.9  0.00  0.00   0.000   0.002   26.0    60   17.6   26.6  10.80  .0718    117    1    100.0    5 
20/09/18  18:00   19.0   19.0   19.0    82   15.9  18.0   SSW   1.50  23.0   SSW   15.9   19.6   16.5  1007.8  0.00  0.00   0.000   0.002   25.9    60   17.6   26.5  10.80  .0719    117    1    100.0    5 
20/09/18  18:05   18.9   19.0   18.9    82   15.7  16.0   SSW   1.33  21.0   SSW   16.1   19.4   16.6  1007.8  0.00  0.00   0.000   0.002   25.9    60   17.6   26.5  10.80  .0719    117    1    100.0    5 
20/09/18  18:10   18.9   18.9   18.8    82   15.7  17.0   SSW   1.42  21.0    SW   15.9   19.4   16.4  1007.8  0.00  0.00   0.000   0.002   25.9    60   17.6   26.5  10.80  .0719    115    1    100.0    5 
20/09/18  18:15   18.8   18.9   18.8    82   15.7  17.0   SSW   1.42  23.0    SW   15.9   19.3   16.4  1007.7  0.00  0.00   0.000   0.002   25.9    60   17.5   26.4  10.81  .0719    117    1    100.0    5 
20/09/18  18:20   18.8   18.8   18.7    82   15.6  21.0   SSW   1.75  27.0   SSW   15.3   19.3   15.8  1007.6  0.00  0.00   0.000   0.002   25.9    60   17.5   26.4  10.81  .0719    118    1    100.0    5 
20/09/18  18:25   18.7   18.8   18.7    82   15.6  22.0   SSW   1.83  28.0   SSW   15.2   19.2   15.7  1007.4  0.00  0.00   0.000   0.001   25.9    60   17.5   26.4  10.81  .0718    116    1    100.0    5 
20/09/18  18:30   18.8   18.8   18.7    82   15.6  23.0   SSW   1.92  27.0    SW   15.1   19.3   15.6  1007.1  0.00  0.00   0.000   0.002   25.8    60   17.5   26.4  10.81  .0718    117    1    100.0    5 
20/09/18  18:35   18.8   18.8   18.8    82   15.7  23.0   SSW   1.92  28.0   SSW   15.2   19.3   15.7  1007.1  0.00  0.00   0.000   0.002   25.8    60   17.5   26.4  10.81  .0718    117    1    100.0    5 
20/09/18  18:40   18.9   18.9   18.8    81   15.6  22.0   SSW   1.83  26.0   SSW   15.4   19.4   15.9  1007.0  0.00  0.00   0.000   0.002   25.8    60   17.4   26.3  10.81  .0719    115    1    100.0    5 
20/09/18  18:45   18.9   18.9   18.9    81   15.6  22.0   SSW   1.83  27.0   SSW   15.4   19.4   15.9  1006.8  0.00  0.00   0.000   0.002   25.8    60   17.4   26.3  10.81  .0718    117    1    100.0    5 
20/09/18  18:50   18.9   18.9   18.9    81   15.6  21.0   SSW   1.75  25.0   SSW   15.5   19.4   16.0  1006.6  0.00  0.00   0.000   0.002   25.8    60   17.4   26.3  10.81  .0718     69    1     60.5    5 
20/09/18  18:55   19.1   19.1   18.9    81   15.7  20.0   SSW   1.67  24.0    SW   15.7   19.6   16.3  1006.5  0.00  0.00   0.000   0.003   25.8    60   17.4   26.3  10.81  .0718    116    1    100.0    5 
20/09/18  19:00   19.1   19.1   19.1    81   15.7  20.0   SSW   1.67  24.0   SSW   15.7   19.6   16.3  1006.5  0.00  0.00   0.000   0.003   25.8    60   17.4   26.3  10.81  .0718    117    1    100.0    5 
20/09/18  19:05   19.1   19.1   19.1    81   15.8  21.0   SSW   1.75  26.0   SSW   15.7   19.7   16.2  1006.6  0.00  0.00   0.000   0.003   25.8    60   17.4   26.3  10.81  .0718    117    1    100.0    5 
20/09/18  19:10   19.1   19.1   19.1    81   15.8  19.0   SSW   1.58  24.0   SSW   15.9   19.7   16.5  1006.4  0.00  0.00   0.000   0.003   25.7    60   17.4   26.3  10.82  .0718    117    1    100.0    5 
20/09/18  19:15   19.1   19.1   19.1    81   15.7  19.0   SSW   1.58  24.0   SSW   15.9   19.6   16.4  1006.2  0.00  0.00   0.000   0.003   25.7    60   17.4   26.3  10.82  .0718    115    1    100.0    5 
20/09/18  19:20   19.1   19.1   19.1    81   15.7  18.0   SSW   1.50  23.0   SSW   16.0   19.6   16.6  1006.2  0.00  0.00   0.000   0.003   25.7    60   17.3   26.2  10.82  .0718    116    1    100.0    5 
20/09/18  19:25   19.0   19.1   19.0    81   15.7  17.0   SSW   1.42  21.0   SSW   16.1   19.6   16.6  1005.9  0.00  0.00   0.000   0.002   25.7    60   17.3   26.2  10.82  .0718    118    1    100.0    5 
20/09/18  19:30   18.9   19.0   18.9    81   15.6  16.0   SSW   1.33  21.0   SSW   16.2   19.4   16.7  1005.9  0.00  0.00   0.000   0.002   25.7    60   17.3   26.2  10.82  .0718    117    1    100.0    5 
20/09/18  19:35   18.9   18.9   18.9    81   15.6  17.0   SSW   1.42  22.0   SSW   16.0   19.4   16.5  1005.8  0.00  0.00   0.000   0.002   25.6    60   17.3   26.1  10.83  .0718    116    1    100.0    5 
20/09/18  19:40   18.9   18.9   18.9    81   15.6  17.0   SSW   1.42  23.0   SSW   16.0   19.4   16.5  1006.0  0.00  0.00   0.000   0.002   25.6    60   17.3   26.1  10.83  .0718    116    1    100.0    5 
20/09/18  19:45   18.9   18.9   18.9    81   15.6  18.0   SSW   1.50  22.0   SSW   15.9   19.4   16.4  1006.0  0.00  0.00   0.000   0.002   25.6    60   17.3   26.1  10.83  .0718    117    1    100.0    5 
20/09/18  19:50   18.9   18.9   18.9    81   15.6  18.0   SSW   1.50  24.0   SSW   15.9   19.4   16.4  1006.0  0.00  0.00   0.000   0.002   25.6    60   17.3   26.1  10.83  .0718    117    1    100.0    5 
20/09/18  19:55   19.0   19.0   18.9    81   15.7  18.0   SSW   1.50  23.0   SSW   15.9   19.6   16.5  1005.9  0.00  0.00   0.000   0.002   25.6    60   17.2   26.1  10.83  .0718    117    1    100.0    5 
20/09/18  20:00   18.9   19.0   18.9    81   15.6  17.0   SSW   1.42  21.0   SSW   16.0   19.4   16.5  1005.8  0.00  0.00   0.000   0.002   25.6    60   17.2   26.1  10.83  .0718    116    1    100.0    5 
20/09/18  20:05   18.9   18.9   18.9    81   15.6  16.0   SSW   1.33  20.0   SSW   16.1   19.4   16.6  1005.5  0.00  0.00   0.000   0.002   25.6    60   17.2   26.1  10.83  .0718    116    1    100.0    5 
20/09/18  20:10   18.9   18.9   18.9    81   15.6  18.0   SSW   1.50  23.0   SSW   15.8   19.4   16.3  1005.5  0.00  0.00   0.000   0.002   25.6    60   17.2   26.1  10.83  .0718    117    1    100.0    5 
20/09/18  20:15   18.9   18.9   18.9    81   15.6  19.0   SSW   1.58  25.0    SW   15.7   19.4   16.2  1005.5  0.00  0.00   0.000   0.002   25.5    60   17.2   26.0  10.83  .0718    117    1    100.0    5 
20/09/18  20:20   19.1   19.1   19.0    81   15.7  20.0   SSW   1.67  25.0   SSW   15.7   19.6   16.3  1005.4  0.00  0.00   0.000   0.003   25.5    60   17.2   26.0  10.83  .0718    117    1    100.0    5 
20/09/18  20:25   19.2   19.2   19.1    80   15.6  20.0   SSW   1.67  25.0   SSW   15.9   19.7   16.4  1005.3  0.00  0.00   0.000   0.003   25.5    60   17.2   26.0  10.83  .0718    118    1    100.0    5 
20/09/18  20:30   19.1   19.2   19.1    80   15.6  20.0   SSW   1.67  24.0   SSW   15.8   19.7   16.3  1005.2  0.00  0.00   0.000   0.003   25.4    60   17.1   25.9  10.84  .0718    116    1    100.0    5 
20/09/18  20:35   19.1   19.1   19.1    80   15.6  20.0   SSW   1.67  27.0   SSW   15.8   19.7   16.3  1005.1  0.00  0.00   0.000   0.003   25.4    60   17.1   25.9  10.84  .0718    117    1    100.0    5 
20/09/18  20:40   19.2   19.2   19.1    80   15.6  21.0   SSW   1.75  26.0   SSW   15.8   19.7   16.3  1005.1  0.00  0.00   0.000   0.003   25.4    60   17.1   25.9  10.84  .0718    116    1    100.0    5 
20/09/18  20:45   19.1   19.2   19.1    80   15.6  20.0   SSW   1.67  28.0   SSW   15.8   19.7   16.3  1005.1  0.00  0.00   0.000   0.003   25.4    60   17.1   25.9  10.84  .0718    116    1    100.0    5 
20/09/18  20:50   19.2   19.2   19.1    80   15.6  22.0   SSW   1.83  28.0   SSW   15.7   19.7   16.2  1005.0  0.00  0.00   0.000   0.003   25.4    60   17.1   25.9  10.84  .0718    116    1    100.0    5 
20/09/18  20:55   19.2   19.2   19.2    80   15.6  22.0   SSW   1.83  29.0   SSW   15.7   19.7   16.2  1004.8  0.00  0.00   0.000   0.003   25.4    60   17.1   25.9  10.84  .0718    116    1    100.0    5 
20/09/18  21:00   19.2   19.2   19.2    80   15.7  21.0   SSW   1.75  26.0     S   15.8   19.8   16.4  1004.8  0.00  0.00   0.000   0.003   25.4    60   17.1   25.9  10.84  .0718    115    1    100.0    5 
20/09/18  21:05   19.2   19.2   19.2    79   15.5  22.0   SSW   1.83  28.0   SSW   15.7   19.7   16.2  1004.7  0.00  0.00   0.000   0.003   25.3    60   17.0   25.8  10.85  .0718    117    1    100.0    5 
20/09/18  21:10   19.3   19.3   19.2    79   15.5  22.0   SSW   1.83  31.0     S   15.8   19.8   16.3  1004.5  0.00  0.00   0.000   0.003   25.3    60   17.0   25.8  10.85  .0718    117    1    100.0    5 
20/09/18  21:15   19.2   19.3   19.2    80   15.7  21.0   SSW   1.75  27.0   SSW   15.8   19.8   16.4  1004.5  0.00  0.00   0.000   0.003   25.3    60   17.0   25.8  10.85  .0718    117    1    100.0    5 
20/09/18  21:20   19.2   19.2   19.2    79   15.4  22.0   SSW   1.83  28.0   SSW   15.7   19.7   16.2  1004.4  0.00  0.00   0.000   0.003   25.3    60   17.0   25.8  10.85  .0718    116    1    100.0    5 
20/09/18  21:25   19.2   19.2   19.2    79   15.5  22.0   SSW   1.83  28.0   SSW   15.7   19.7   16.2  1004.2  0.00  0.00   0.000   0.003   25.3    60   17.0   25.8  10.85  .0718    117    1    100.0    5 
20/09/18  21:30   19.2   19.2   19.2    79   15.5  23.0   SSW   1.92  32.0   SSW   15.6   19.7   16.1  1004.1  0.00  0.00   0.000   0.003   25.3    60   17.0   25.8  10.85  .0718    118    1    100.0    5 
20/09/18  21:35   19.2   19.2   19.2    79   15.5  23.0   SSW   1.92  28.0     S   15.6   19.7   16.1  1004.1  0.00  0.00   0.000   0.003   25.3    60   17.0   25.8  10.85  .0718    117    1    100.0    5 
20/09/18  21:40   19.2   19.2   19.2    79   15.5  22.0   SSW   1.83  29.0   SSW   15.7   19.7   16.2  1004.1  0.00  0.00   0.000   0.003   25.2    60   16.9   25.7  10.85  .0718    117    1    100.0    5 
20/09/18  21:45   19.2   19.2   19.2    79   15.4  22.0   SSW   1.83  31.0     S   15.7   19.7   16.2  1003.9  0.00  0.00   0.000   0.003   25.2    60   16.9   25.7  10.85  .0718    117    1    100.0    5 
20/09/18  21:50   19.2   19.2   19.2    79   15.4  23.0   SSW   1.92  29.0   SSW   15.6   19.7   16.1  1003.9  0.00  0.00   0.000   0.003   25.2    60   16.9   25.6  10.86  .0718    117    1    100.0    5 
20/09/18  21:55   19.2   19.2   19.2    79   15.5  23.0   SSW   1.92  30.0   SSW   15.6   19.7   16.1  1003.7  0.00  0.00   0.000   0.003   25.2    60   16.9   25.6  10.86  .0718    117    1    100.0    5 
20/09/18  22:00   19.2   19.2   19.2    79   15.5  23.0   SSW   1.92  32.0   SSW   15.6   19.7   16.1  1003.6  0.00  0.00   0.000   0.003   25.2    60   16.9   25.6  10.86  .0718    115    1    100.0    5 
20/09/18  22:05   19.2   19.2   19.2    79   15.5  24.0   SSW   2.00  32.0   SSW   15.6   19.7   16.1  1003.6  0.00  0.00   0.000   0.003   25.2    60   16.9   25.6  10.86  .0718    117    1    100.0    5 
20/09/18  22:10   19.3   19.3   19.2    79   15.5  25.0   SSW   2.08  30.0   SSW   15.5   19.8   16.1  1003.6  0.00  0.00   0.000   0.003   25.1    60   16.8   25.6  10.86  .0718    115    1    100.0    5 
20/09/18  22:15   19.2   19.3   19.2    79   15.5  23.0   SSW   1.92  28.0   SSW   15.6   19.7   16.1  1003.2  0.00  0.00   0.000   0.003   25.1    60   16.8   25.6  10.86  .0718    117    1    100.0    5 
20/09/18  22:20   19.2   19.2   19.2    79   15.4  23.0   SSW   1.92  31.0     S   15.6   19.7   16.1  1003.2  0.00  0.00   0.000   0.003   25.1    60   16.8   25.6  10.86  .0718    117    1    100.0    5 
20/09/18  22:25   19.2   19.2   19.2    79   15.4  24.0   SSW   2.00  32.0   SSW   15.5   19.7   16.0  1003.1  0.00  0.00   0.000   0.003   25.1    60   16.8   25.6  10.86  .0718    116    1    100.0    5 
20/09/18  22:30   19.2   19.2   19.2    80   15.6  26.0   SSW   2.17  33.0   SSW   15.3   19.7   15.9  1003.2  0.00  0.00   0.000   0.003   25.1    60   16.7   25.5  10.87  .0718    118    1    100.0    5 
20/09/18  22:35   19.1   19.2   19.1    80   15.6  24.0   SSW   2.00  31.0   SSW   15.4   19.7   15.9  1003.0  0.00  0.00   0.000   0.003   25.1    60   16.7   25.5  10.87  .0718    117    1    100.0    5 
20/09/18  22:40   19.1   19.2   19.1    80   15.6  25.0   SSW   2.08  32.0   SSW   15.3   19.7   15.9  1002.7  0.00  0.00   0.000   0.003   25.1    60   16.7   25.5  10.87  .0718    115    1    100.0    5 
115980